Observation data for Tarzan on 08/14/2019      Previous  Date  Next       Current Mesonet Observations  Soil Data  Daily Summary Page  Observations in Plain Language
KTA1 140500Z 07007KT 28/19 A3007 RMK A01 T02800192  RH  059%=      5-min Rain = 0
KTA1 140501Z 07007KT 28/19 A3007 RMK A01 T02800192  RH  059%=      5-min Rain = 0
KTA1 140502Z 07008KT 28/19 A3007 RMK A01 T02800192  RH  059%=      5-min Rain = 0
KTA1 140503Z 07008KT 28/19 A3007 RMK A01 T02800192  RH  059%=      5-min Rain = 0
KTA1 140504Z 07008KT 28/19 A3007 RMK A01 T02800192  RH  059%=      5-min Rain = 0
KTA1 140505Z 07008KT 28/19 A3007 RMK A01 T02800192  RH  059%=      5-min Rain = 0
KTA1 140506Z 07008KT 28/19 A3007 RMK A01 T02800193  RH  059%=      5-min Rain = 0
KTA1 140507Z 07009KT 28/19 A3007 RMK A01 T02800193  RH  059%=      5-min Rain = 0
KTA1 140508Z 07008KT 28/19 A3007 RMK A01 T02800194  RH  059%=      5-min Rain = 0
KTA1 140509Z 07009KT 28/19 A3007 RMK A01 T02800194  RH  060%=      5-min Rain = 0
KTA1 140510Z 07009KT 28/20 A3007 RMK A01 T02800195  RH  060%=      5-min Rain = 0
KTA1 140526Z 05008KT 28/20 A3008 RMK A01 T02790196  RH  060%=      5-min Rain = 0
KTA1 140527Z 05007KT 28/20 A3008 RMK A01 T02790196  RH  060%=      5-min Rain = 0
KTA1 140528Z 05006KT 28/20 A3008 RMK A01 T02790196  RH  060%=      5-min Rain = 0
KTA1 140529Z 06007KT 28/20 A3008 RMK A01 T02790197  RH  061%=      5-min Rain = 0
KTA1 140530Z 06007KT 28/20 A3008 RMK A01 T02790196  RH  061%=      5-min Rain = 0
KTA1 140531Z 06007KT 28/20 A3008 RMK A01 T02790196  RH  061%=      5-min Rain = 0
KTA1 140532Z 06008KT 28/19 A3008 RMK A01 T02790194  RH  060%=      5-min Rain = 0
KTA1 140533Z 07007KT 28/19 A3008 RMK A01 T02800193  RH  059%=      5-min Rain = 0
KTA1 140534Z 07007KT 28/19 A3008 RMK A01 T02810193  RH  059%=      5-min Rain = 0
KTA1 140535Z 07007KT 28/19 A3008 RMK A01 T02810193  RH  059%=      5-min Rain = 0
KTA1 140536Z 06007KT 28/19 A3008 RMK A01 T02810194  RH  059%=      5-min Rain = 0
KTA1 140537Z 06007KT 28/20 A3008 RMK A01 T02810195  RH  059%=      5-min Rain = 0
KTA1 140538Z 06007KT 28/20 A3008 RMK A01 T02810195  RH  060%=      5-min Rain = 0
KTA1 140539Z 06007KT 28/20 A3008 RMK A01 T02800196  RH  060%=      5-min Rain = 0
KTA1 140540Z 06007KT 28/20 A3008 RMK A01 T02800197  RH  061%=      5-min Rain = 0
KTA1 140541Z 06006KT 28/20 A3008 RMK A01 T02800198  RH  061%=      5-min Rain = 0
KTA1 140542Z 06006KT 28/20 A3008 RMK A01 T02790198  RH  061%=      5-min Rain = 0
KTA1 140543Z 06006KT 28/20 A3008 RMK A01 T02790198  RH  061%=      5-min Rain = 0
KTA1 140544Z 05005KT 28/20 A3008 RMK A01 T02790197  RH  061%=      5-min Rain = 0
KTA1 140545Z 05005KT 28/20 A3008 RMK A01 T02790197  RH  061%=      5-min Rain = 0
KTA1 140546Z 05005KT 28/20 A3008 RMK A01 T02790196  RH  061%=      5-min Rain = 0
KTA1 140547Z 05006KT 28/20 A3008 RMK A01 T02790196  RH  061%=      5-min Rain = 0
KTA1 140548Z 05006KT 28/20 A3008 RMK A01 T02790196  RH  061%=      5-min Rain = 0
KTA1 140549Z 05006KT 28/20 A3008 RMK A01 T02780197  RH  061%=      5-min Rain = 0
KTA1 140550Z 05006KT 28/20 A3008 RMK A01 T02780197  RH  061%=      5-min Rain = 0
KTA1 140551Z 05005KT 28/20 A3008 RMK A01 T02780197  RH  061%=      5-min Rain = 0
KTA1 140552Z 05005KT 28/20 A3008 RMK A01 T02780197  RH  061%=      5-min Rain = 0
KTA1 140553Z 06005KT 28/20 A3008 RMK A01 T02780197  RH  061%=      5-min Rain = 0
KTA1 140554Z 06005KT 28/20 A3008 RMK A01 T02770196  RH  061%=      5-min Rain = 0
KTA1 140555Z 06005KT 28/20 A3008 RMK A01 T02770196  RH  061%=      5-min Rain = 0
KTA1 140556Z 06005KT 28/20 A3008 RMK A01 T02770195  RH  061%=      5-min Rain = 0
KTA1 140557Z 06005KT 28/20 A3008 RMK A01 T02780195  RH  061%=      5-min Rain = 0
KTA1 140558Z 05006KT 28/20 A3008 RMK A01 T02780195  RH  061%=      5-min Rain = 0
KTA1 140559Z 04006KT 28/20 A3009 RMK A01 T02780195  RH  061%=      5-min Rain = 0
KTA1 140600Z 05006KT 28/20 A3009 RMK A01 T02780196  RH  061%=      5-min Rain = 0
KTA1 140601Z 05006KT 28/20 A3009 RMK A01 T02770195  RH  061%=      5-min Rain = 0
KTA1 140602Z 05007KT 28/20 A3009 RMK A01 T02770195  RH  061%=      5-min Rain = 0
KTA1 140603Z 05006KT 28/20 A3009 RMK A01 T02770195  RH  061%=      5-min Rain = 0
KTA1 140604Z 05006KT 28/20 A3009 RMK A01 T02770195  RH  061%=      5-min Rain = 0
KTA1 140605Z 05006KT 28/19 A3009 RMK A01 T02770194  RH  061%=      5-min Rain = 0
KTA1 140606Z 05006KT 28/19 A3009 RMK A01 T02770194  RH  061%=      5-min Rain = 0
KTA1 140607Z 04005KT 28/19 A3009 RMK A01 T02770194  RH  060%=      5-min Rain = 0
KTA1 140608Z 05005KT 28/19 A3009 RMK A01 T02770193  RH  060%=      5-min Rain = 0
KTA1 140609Z 05006KT 28/19 A3009 RMK A01 T02770192  RH  060%=      5-min Rain = 0
KTA1 140610Z 04006KT 28/19 A3009 RMK A01 T02770191  RH  059%=      5-min Rain = 0
KTA1 140611Z 05006KT 28/19 A3009 RMK A01 T02780190  RH  059%=      5-min Rain = 0
KTA1 140612Z 05006KT 28/19 A3009 RMK A01 T02780189  RH  059%=      5-min Rain = 0
KTA1 140613Z 05005KT 28/19 A3009 RMK A01 T02780188  RH  058%=      5-min Rain = 0
KTA1 140614Z 05006KT 28/19 A3009 RMK A01 T02780187  RH  058%=      5-min Rain = 0
KTA1 140615Z 05006KT 28/19 A3009 RMK A01 T02790186  RH  057%=      5-min Rain = 0
KTA1 140616Z 05007KT 28/19 A3009 RMK A01 T02790185  RH  057%=      5-min Rain = 0
KTA1 140617Z 05007KT 28/19 A3009 RMK A01 T02800185  RH  056%=      5-min Rain = 0
KTA1 140618Z 05008KT 28/18 A3009 RMK A01 T02800184  RH  056%=      5-min Rain = 0
KTA1 140619Z 05009KT 28/18 A3009 RMK A01 T02810184  RH  056%=      5-min Rain = 0
KTA1 140620Z 05008KT 28/18 A3009 RMK A01 T02810184  RH  056%=      5-min Rain = 0
KTA1 140621Z 05007KT 28/19 A3009 RMK A01 T02810185  RH  056%=      5-min Rain = 0
KTA1 140622Z 05009KT 28/19 A3009 RMK A01 T02810185  RH  056%=      5-min Rain = 0
KTA1 140623Z 05008KT 28/19 A3009 RMK A01 T02810186  RH  056%=      5-min Rain = 0
KTA1 140624Z 05008KT 28/19 A3009 RMK A01 T02810187  RH  057%=      5-min Rain = 0
KTA1 140625Z 05007KT 28/19 A3008 RMK A01 T02810187  RH  057%=      5-min Rain = 0
KTA1 140626Z 05008KT 28/19 A3009 RMK A01 T02800188  RH  057%=      5-min Rain = 0
KTA1 140627Z 06008KT 28/19 A3009 RMK A01 T02800189  RH  058%=      5-min Rain = 0
KTA1 140628Z 06008KT 28/19 A3009 RMK A01 T02800189  RH  058%=      5-min Rain = 0
KTA1 140629Z 05008KT 28/19 A3009 RMK A01 T02790189  RH  058%=      5-min Rain = 0
KTA1 140630Z 06008KT 28/19 A3009 RMK A01 T02790190  RH  058%=      5-min Rain = 0
KTA1 140631Z 06008KT 28/19 A3009 RMK A01 T02780190  RH  059%=      5-min Rain = 0
KTA1 140632Z 06007KT 28/19 A3009 RMK A01 T02780191  RH  059%=      5-min Rain = 0
KTA1 140633Z 06007KT 28/19 A3009 RMK A01 T02780191  RH  059%=      5-min Rain = 0
KTA1 140634Z 05007KT 28/19 A3009 RMK A01 T02780192  RH  059%=      5-min Rain = 0
KTA1 140635Z 05006KT 28/19 A3009 RMK A01 T02780192  RH  059%=      5-min Rain = 0
KTA1 140636Z 06007KT 28/19 A3009 RMK A01 T02780192  RH  060%=      5-min Rain = 0
KTA1 140637Z 06007KT 28/19 A3009 RMK A01 T02780193  RH  060%=      5-min Rain = 0
KTA1 140638Z 06006KT 28/19 A3008 RMK A01 T02770193  RH  060%=      5-min Rain = 0
KTA1 140639Z 06007KT 28/19 A3008 RMK A01 T02770193  RH  060%=      5-min Rain = 0
KTA1 140640Z 06006KT 28/19 A3008 RMK A01 T02770193  RH  060%=      5-min Rain = 0
KTA1 140641Z 06006KT 28/19 A3008 RMK A01 T02770194  RH  060%=      5-min Rain = 0
KTA1 140642Z 06006KT 28/19 A3008 RMK A01 T02760194  RH  061%=      5-min Rain = 0
KTA1 140643Z 06006KT 28/19 A3008 RMK A01 T02760194  RH  061%=      5-min Rain = 0
KTA1 140644Z 06008KT 28/20 A3008 RMK A01 T02760195  RH  061%=      5-min Rain = 0
KTA1 140645Z 06008KT 28/20 A3008 RMK A01 T02760196  RH  062%=      5-min Rain = 0
KTA1 140646Z 07007KT 28/20 A3008 RMK A01 T02760196  RH  062%=      5-min Rain = 0
KTA1 140647Z 06008KT 28/20 A3008 RMK A01 T02760197  RH  062%=      5-min Rain = 0
KTA1 140648Z 07008KT 28/20 A3008 RMK A01 T02750198  RH  063%=      5-min Rain = 0
KTA1 140649Z 07007KT 28/20 A3008 RMK A01 T02750199  RH  063%=      5-min Rain = 0
KTA1 140650Z 06007KT 28/20 A3008 RMK A01 T02750198  RH  063%=      5-min Rain = 0
KTA1 140651Z 07007KT 27/20 A3008 RMK A01 T02740199  RH  063%=      5-min Rain = 0
KTA1 140652Z 07007KT 27/20 A3008 RMK A01 T02740199  RH  064%=      5-min Rain = 0
KTA1 140653Z 07008KT 27/20 A3008 RMK A01 T02740200  RH  064%=      5-min Rain = 0
KTA1 140654Z 07007KT 27/20 A3008 RMK A01 T02730200  RH  064%=      5-min Rain = 0
KTA1 140655Z 07007KT 27/20 A3008 RMK A01 T02730200  RH  064%=      5-min Rain = 0
KTA1 140656Z 06007KT 27/20 A3008 RMK A01 T02730200  RH  064%=      5-min Rain = 0
KTA1 140657Z 06007KT 27/20 A3008 RMK A01 T02730201  RH  065%=      5-min Rain = 0
KTA1 140658Z 06007KT 27/20 A3008 RMK A01 T02730201  RH  065%=      5-min Rain = 0
KTA1 140659Z 06008KT 27/20 A3008 RMK A01 T02720201  RH  065%=      5-min Rain = 0
KTA1 140700Z 05007KT 27/20 A3008 RMK A01 T02720201  RH  065%=      5-min Rain = 0
KTA1 140701Z 05007KT 27/20 A3008 RMK A01 T02720201  RH  065%=      5-min Rain = 0
KTA1 140702Z 05007KT 27/20 A3008 RMK A01 T02720201  RH  065%=      5-min Rain = 0
KTA1 140703Z 05008KT 27/20 A3008 RMK A01 T02720201  RH  065%=      5-min Rain = 0
KTA1 140704Z 05007KT 27/20 A3008 RMK A01 T02720201  RH  065%=      5-min Rain = 0
KTA1 140705Z 04008KT 27/20 A3008 RMK A01 T02720201  RH  065%=      5-min Rain = 0
KTA1 140706Z 05008KT 27/20 A3008 RMK A01 T02720201  RH  065%=      5-min Rain = 0
KTA1 140707Z 05009KT 27/20 A3008 RMK A01 T02710201  RH  065%=      5-min Rain = 0
KTA1 140708Z 05009KT 27/20 A3008 RMK A01 T02720202  RH  065%=      5-min Rain = 0
KTA1 140709Z 05009KT 27/20 A3008 RMK A01 T02720202  RH  066%=      5-min Rain = 0
KTA1 140710Z 05009KT 27/20 A3008 RMK A01 T02720202  RH  066%=      5-min Rain = 0
KTA1 140711Z 05010KT 27/20 A3008 RMK A01 T02720203  RH  066%=      5-min Rain = 0
KTA1 140712Z 05009KT 27/20 A3008 RMK A01 T02730204  RH  066%=      5-min Rain = 0
KTA1 140713Z 05009KT 27/20 A3008 RMK A01 T02730204  RH  066%=      5-min Rain = 0
KTA1 140714Z 05009KT 27/20 A3008 RMK A01 T02720204  RH  066%=      5-min Rain = 0
KTA1 140715Z 05008KT 27/21 A3008 RMK A01 T02730205  RH  066%=      5-min Rain = 0
KTA1 140716Z 06008KT 27/21 A3008 RMK A01 T02730205  RH  066%=      5-min Rain = 0
KTA1 140717Z 06008KT 27/21 A3008 RMK A01 T02730205  RH  066%=      5-min Rain = 0
KTA1 140718Z 06007KT 27/21 A3008 RMK A01 T02730205  RH  066%=      5-min Rain = 0
KTA1 140719Z 06007KT 27/21 A3008 RMK A01 T02730205  RH  066%=      5-min Rain = 0
KTA1 140720Z 06007KT 27/21 A3008 RMK A01 T02730205  RH  066%=      5-min Rain = 0
KTA1 140721Z 06007KT 27/21 A3008 RMK A01 T02730205  RH  066%=      5-min Rain = 0
KTA1 140722Z 06007KT 27/21 A3008 RMK A01 T02730205  RH  067%=      5-min Rain = 0
KTA1 140723Z 06007KT 27/21 A3008 RMK A01 T02720205  RH  067%=      5-min Rain = 0
KTA1 140724Z 06007KT 27/21 A3008 RMK A01 T02730205  RH  067%=      5-min Rain = 0
KTA1 140725Z 06008KT 27/21 A3008 RMK A01 T02730206  RH  067%=      5-min Rain = 0
KTA1 140726Z 06008KT 27/21 A3008 RMK A01 T02730206  RH  067%=      5-min Rain = 0
KTA1 140727Z 06008KT 27/21 A3008 RMK A01 T02730206  RH  067%=      5-min Rain = 0
KTA1 140728Z 06009KT 27/21 A3008 RMK A01 T02730206  RH  067%=      5-min Rain = 0
KTA1 140729Z 06009KT 27/21 A3008 RMK A01 T02730206  RH  067%=      5-min Rain = 0
KTA1 140730Z 06009KT 27/21 A3008 RMK A01 T02730207  RH  067%=      5-min Rain = 0
KTA1 140731Z 06009KT 27/21 A3008 RMK A01 T02730207  RH  067%=      5-min Rain = 0
KTA1 140732Z 06009KT 27/21 A3008 RMK A01 T02730207  RH  067%=      5-min Rain = 0
KTA1 140733Z 05009KT 27/21 A3008 RMK A01 T02730207  RH  067%=      5-min Rain = 0
KTA1 140734Z 05009KT 27/21 A3008 RMK A01 T02730207  RH  067%=      5-min Rain = 0
KTA1 140735Z 05009KT 27/21 A3008 RMK A01 T02730207  RH  067%=      5-min Rain = 0
KTA1 140736Z 05010KT 27/21 A3008 RMK A01 T02730207  RH  067%=      5-min Rain = 0
KTA1 140737Z 05009KT 27/21 A3008 RMK A01 T02730208  RH  067%=      5-min Rain = 0
KTA1 140738Z 05008KT 27/21 A3008 RMK A01 T02730208  RH  067%=      5-min Rain = 0
KTA1 140739Z 06008KT 27/21 A3008 RMK A01 T02730208  RH  068%=      5-min Rain = 0
KTA1 140740Z 06008KT 27/21 A3008 RMK A01 T02720208  RH  068%=      5-min Rain = 0
KTA1 140741Z 06007KT 27/21 A3008 RMK A01 T02720208  RH  068%=      5-min Rain = 0
KTA1 140742Z 06008KT 27/21 A3008 RMK A01 T02710208  RH  068%=      5-min Rain = 0
KTA1 140743Z 05008KT 27/21 A3008 RMK A01 T02710208  RH  068%=      5-min Rain = 0
KTA1 140744Z 06007KT 27/21 A3008 RMK A01 T02710207  RH  068%=      5-min Rain = 0
KTA1 140745Z 06007KT 27/21 A3008 RMK A01 T02710207  RH  068%=      5-min Rain = 0
KTA1 140746Z 06007KT 27/21 A3008 RMK A01 T02710207  RH  068%=      5-min Rain = 0
KTA1 140747Z 06007KT 27/21 A3008 RMK A01 T02710207  RH  068%=      5-min Rain = 0
KTA1 140748Z 06006KT 27/21 A3008 RMK A01 T02710207  RH  068%=      5-min Rain = 0
KTA1 140749Z 06007KT 27/21 A3008 RMK A01 T02710207  RH  068%=      5-min Rain = 0
KTA1 140750Z 06007KT 27/21 A3008 RMK A01 T02700207  RH  068%=      5-min Rain = 0
KTA1 140751Z 06008KT 27/21 A3008 RMK A01 T02700207  RH  068%=      5-min Rain = 0
KTA1 140752Z 06008KT 27/21 A3008 RMK A01 T02700207  RH  068%=      5-min Rain = 0
KTA1 140753Z 06007KT 27/21 A3008 RMK A01 T02690206  RH  068%=      5-min Rain = 0
KTA1 140754Z 05009KT 27/21 A3008 RMK A01 T02700207  RH  068%=      5-min Rain = 0
KTA1 140755Z 05009KT 27/21 A3008 RMK A01 T02690206  RH  068%=      5-min Rain = 0
KTA1 140756Z 06009KT 27/21 A3008 RMK A01 T02690206  RH  068%=      5-min Rain = 0
KTA1 140757Z 06008KT 27/21 A3008 RMK A01 T02690206  RH  068%=      5-min Rain = 0
KTA1 140758Z 06008KT 27/21 A3008 RMK A01 T02690206  RH  068%=      5-min Rain = 0
KTA1 140759Z 07009KT 27/21 A3008 RMK A01 T02690206  RH  068%=      5-min Rain = 0
KTA1 140800Z 06009KT 27/21 A3007 RMK A01 T02700207  RH  068%=      5-min Rain = 0
KTA1 140801Z 07009KT 27/21 A3007 RMK A01 T02690207  RH  069%=      5-min Rain = 0
KTA1 140802Z 07007KT 27/21 A3007 RMK A01 T02690207  RH  069%=      5-min Rain = 0
KTA1 140803Z 07007KT 27/21 A3007 RMK A01 T02690208  RH  069%=      5-min Rain = 0
KTA1 140804Z 07007KT 27/21 A3007 RMK A01 T02680208  RH  070%=      5-min Rain = 0
KTA1 140805Z 07007KT 27/21 A3007 RMK A01 T02670208  RH  070%=      5-min Rain = 0
KTA1 140806Z 07007KT 27/21 A3007 RMK A01 T02670208  RH  070%=      5-min Rain = 0
KTA1 140807Z 07007KT 27/21 A3007 RMK A01 T02660208  RH  070%=      5-min Rain = 0
KTA1 140808Z 07007KT 27/21 A3007 RMK A01 T02660208  RH  070%=      5-min Rain = 0
KTA1 140809Z 06008KT 27/21 A3007 RMK A01 T02660208  RH  070%=      5-min Rain = 0
KTA1 140810Z 06007KT 27/21 A3007 RMK A01 T02660208  RH  070%=      5-min Rain = 0
KTA1 140811Z 06007KT 27/21 A3007 RMK A01 T02660208  RH  071%=      5-min Rain = 0
KTA1 140812Z 07007KT 27/21 A3007 RMK A01 T02660208  RH  071%=      5-min Rain = 0
KTA1 140813Z 07008KT 27/21 A3007 RMK A01 T02660208  RH  071%=      5-min Rain = 0
KTA1 140814Z 06008KT 27/21 A3007 RMK A01 T02650208  RH  071%=      5-min Rain = 0
KTA1 140815Z 07007KT 27/21 A3007 RMK A01 T02650208  RH  071%=      5-min Rain = 0
KTA1 140816Z 06008KT 27/21 A3007 RMK A01 T02650208  RH  071%=      5-min Rain = 0
KTA1 140817Z 07007KT 27/21 A3007 RMK A01 T02650208  RH  071%=      5-min Rain = 0
KTA1 140818Z 07007KT 27/21 A3007 RMK A01 T02650208  RH  071%=      5-min Rain = 0
KTA1 140819Z 07006KT 27/21 A3007 RMK A01 T02650208  RH  071%=      5-min Rain = 0
KTA1 140820Z 07007KT 26/21 A3007 RMK A01 T02640208  RH  071%=      5-min Rain = 0
KTA1 140821Z 07007KT 26/21 A3007 RMK A01 T02640208  RH  071%=      5-min Rain = 0
KTA1 140822Z 07006KT 26/21 A3007 RMK A01 T02640208  RH  071%=      5-min Rain = 0
KTA1 140823Z 06006KT 26/21 A3007 RMK A01 T02640208  RH  071%=      5-min Rain = 0
KTA1 140824Z 07006KT 26/21 A3007 RMK A01 T02640208  RH  071%=      5-min Rain = 0
KTA1 140825Z 07007KT 26/21 A3007 RMK A01 T02640208  RH  071%=      5-min Rain = 0
KTA1 140826Z 07006KT 26/21 A3007 RMK A01 T02630208  RH  071%=      5-min Rain = 0
KTA1 140827Z 06007KT 26/21 A3007 RMK A01 T02630208  RH  071%=      5-min Rain = 0
KTA1 140828Z 06007KT 26/21 A3007 RMK A01 T02640208  RH  071%=      5-min Rain = 0
KTA1 140829Z 06006KT 26/21 A3007 RMK A01 T02630207  RH  071%=      5-min Rain = 0
KTA1 140830Z 06006KT 26/21 A3007 RMK A01 T02630207  RH  071%=      5-min Rain = 0
KTA1 140831Z 06006KT 26/21 A3007 RMK A01 T02630207  RH  071%=      5-min Rain = 0
KTA1 140832Z 06007KT 26/21 A3007 RMK A01 T02630207  RH  071%=      5-min Rain = 0
KTA1 140833Z 05006KT 26/21 A3008 RMK A01 T02630207  RH  071%=      5-min Rain = 0
KTA1 140834Z 05006KT 26/21 A3008 RMK A01 T02630206  RH  071%=      5-min Rain = 0
KTA1 140835Z 05006KT 26/21 A3008 RMK A01 T02630206  RH  071%=      5-min Rain = 0
KTA1 140836Z 05007KT 26/21 A3008 RMK A01 T02630207  RH  071%=      5-min Rain = 0
KTA1 140837Z 05007KT 26/21 A3008 RMK A01 T02630207  RH  071%=      5-min Rain = 0
KTA1 140838Z 05007KT 26/21 A3008 RMK A01 T02630207  RH  071%=      5-min Rain = 0
KTA1 140839Z 05007KT 26/21 A3008 RMK A01 T02630207  RH  071%=      5-min Rain = 0
KTA1 140840Z 05006KT 26/21 A3008 RMK A01 T02630207  RH  071%=      5-min Rain = 0
KTA1 140841Z 05007KT 26/21 A3008 RMK A01 T02620207  RH  071%=      5-min Rain = 0
KTA1 140842Z 05007KT 26/21 A3008 RMK A01 T02620207  RH  071%=      5-min Rain = 0
KTA1 140843Z 05006KT 26/21 A3008 RMK A01 T02620207  RH  072%=      5-min Rain = 0
KTA1 140844Z 05006KT 26/21 A3008 RMK A01 T02620207  RH  072%=      5-min Rain = 0
KTA1 140845Z 05007KT 26/21 A3008 RMK A01 T02620207  RH  072%=      5-min Rain = 0
KTA1 140846Z 05008KT 26/21 A3008 RMK A01 T02610208  RH  072%=      5-min Rain = 0
KTA1 140847Z 05008KT 26/21 A3008 RMK A01 T02610208  RH  072%=      5-min Rain = 0
KTA1 140848Z 05008KT 26/21 A3008 RMK A01 T02610208  RH  072%=      5-min Rain = 0
KTA1 140849Z 05007KT 26/21 A3008 RMK A01 T02610208  RH  072%=      5-min Rain = 0
KTA1 140850Z 05008KT 26/21 A3008 RMK A01 T02610207  RH  072%=      5-min Rain = 0
KTA1 140851Z 05008KT 26/21 A3008 RMK A01 T02610207  RH  072%=      5-min Rain = 0
KTA1 140852Z 05009KT 26/21 A3008 RMK A01 T02600207  RH  072%=      5-min Rain = 0
KTA1 140853Z 05008KT 26/21 A3008 RMK A01 T02610207  RH  072%=      5-min Rain = 0
KTA1 140854Z 05009KT 26/21 A3008 RMK A01 T02610206  RH  072%=      5-min Rain = 0
KTA1 140855Z 05010KT 26/21 A3008 RMK A01 T02610206  RH  072%=      5-min Rain = 0
KTA1 140856Z 05009KT 26/21 A3008 RMK A01 T02620206  RH  071%=      5-min Rain = 0
KTA1 140857Z 04009KT 26/21 A3008 RMK A01 T02620206  RH  071%=      5-min Rain = 0
KTA1 140858Z 04009KT 26/21 A3008 RMK A01 T02620205  RH  071%=      5-min Rain = 0
KTA1 140859Z 05009KT 26/21 A3008 RMK A01 T02620205  RH  071%=      5-min Rain = 0
KTA1 140900Z 05009KT 26/21 A3008 RMK A01 T02620205  RH  071%=      5-min Rain = 0
KTA1 140901Z 05009KT 26/21 A3008 RMK A01 T02620205  RH  071%=      5-min Rain = 0
KTA1 140902Z 05008KT 26/21 A3008 RMK A01 T02620205  RH  071%=      5-min Rain = 0
KTA1 140903Z 04009KT 26/20 A3008 RMK A01 T02620204  RH  070%=      5-min Rain = 0
KTA1 140904Z 05010KT 26/20 A3008 RMK A01 T02620204  RH  070%=      5-min Rain = 0
KTA1 140905Z 04009KT 26/20 A3008 RMK A01 T02620203  RH  070%=      5-min Rain = 0
KTA1 140906Z 05008KT 26/20 A3008 RMK A01 T02620203  RH  070%=      5-min Rain = 0
KTA1 140907Z 04009KT 26/20 A3008 RMK A01 T02620203  RH  070%=      5-min Rain = 0
KTA1 140908Z 05009KT 26/20 A3008 RMK A01 T02620202  RH  070%=      5-min Rain = 0
KTA1 140909Z 05008KT 26/20 A3008 RMK A01 T02630202  RH  069%=      5-min Rain = 0
KTA1 140910Z 04009KT 26/20 A3008 RMK A01 T02620202  RH  069%=      5-min Rain = 0
KTA1 140911Z 04009KT 26/20 A3008 RMK A01 T02630202  RH  069%=      5-min Rain = 0
KTA1 140912Z 04009KT 26/20 A3008 RMK A01 T02630202  RH  069%=      5-min Rain = 0
KTA1 140913Z 04009KT 26/20 A3008 RMK A01 T02620201  RH  069%=      5-min Rain = 0
KTA1 140914Z 04007KT 26/20 A3008 RMK A01 T02630201  RH  069%=      5-min Rain = 0
KTA1 140915Z 04007KT 26/20 A3008 RMK A01 T02620201  RH  069%=      5-min Rain = 0
KTA1 140916Z 04007KT 26/20 A3008 RMK A01 T02620201  RH  069%=      5-min Rain = 0
KTA1 140917Z 04007KT 26/20 A3007 RMK A01 T02620201  RH  069%=      5-min Rain = 0
KTA1 140918Z 05009KT 26/20 A3007 RMK A01 T02620201  RH  069%=      5-min Rain = 0
KTA1 140919Z 05009KT 26/20 A3007 RMK A01 T02610200  RH  069%=      5-min Rain = 0
KTA1 140920Z 05011KT 26/20 A3007 RMK A01 T02620200  RH  069%=      5-min Rain = 0
KTA1 140921Z 05009KT 26/20 A3007 RMK A01 T02620200  RH  069%=      5-min Rain = 0
KTA1 140922Z 05011KT 26/20 A3007 RMK A01 T02620200  RH  069%=      5-min Rain = 0
KTA1 140923Z 05010KT 26/20 A3007 RMK A01 T02620201  RH  069%=      5-min Rain = 0
KTA1 140924Z 05011KT 26/20 A3007 RMK A01 T02620200  RH  069%=      5-min Rain = 0
KTA1 140925Z 05010KT 26/20 A3007 RMK A01 T02620201  RH  069%=      5-min Rain = 0
KTA1 140926Z 05009KT 26/20 A3007 RMK A01 T02610201  RH  069%=      5-min Rain = 0
KTA1 140927Z 06009KT 26/20 A3007 RMK A01 T02610201  RH  069%=      5-min Rain = 0
KTA1 140928Z 06008KT 26/20 A3007 RMK A01 T02610201  RH  070%=      5-min Rain = 0
KTA1 140929Z 06009KT 26/20 A3007 RMK A01 T02600201  RH  070%=      5-min Rain = 0
KTA1 140930Z 06009KT 26/20 A3007 RMK A01 T02600201  RH  070%=      5-min Rain = 0
KTA1 140931Z 06010KT 26/20 A3007 RMK A01 T02590201  RH  070%=      5-min Rain = 0
KTA1 140932Z 06009KT 26/20 A3007 RMK A01 T02590201  RH  070%=      5-min Rain = 0
KTA1 140933Z 05008KT 26/20 A3007 RMK A01 T02590201  RH  071%=      5-min Rain = 0
KTA1 140934Z 05010KT 26/20 A3007 RMK A01 T02590202  RH  071%=      5-min Rain = 0
KTA1 140935Z 06010KT 26/20 A3007 RMK A01 T02580201  RH  071%=      5-min Rain = 0
KTA1 140936Z 05007KT 26/20 A3007 RMK A01 T02580201  RH  071%=      5-min Rain = 0
KTA1 140937Z 05008KT 26/20 A3007 RMK A01 T02580201  RH  071%=      5-min Rain = 0
KTA1 140938Z 05008KT 26/20 A3007 RMK A01 T02570202  RH  071%=      5-min Rain = 0
KTA1 140939Z 05007KT 26/20 A3007 RMK A01 T02560201  RH  072%=      5-min Rain = 0
KTA1 140940Z 05008KT 26/20 A3007 RMK A01 T02560202  RH  072%=      5-min Rain = 0
KTA1 140941Z 05007KT 26/20 A3008 RMK A01 T02560202  RH  072%=      5-min Rain = 0
KTA1 140942Z 06007KT 26/20 A3007 RMK A01 T02560202  RH  072%=      5-min Rain = 0
KTA1 140943Z 06008KT 26/20 A3007 RMK A01 T02550202  RH  072%=      5-min Rain = 0
KTA1 140944Z 06008KT 26/20 A3007 RMK A01 T02550202  RH  072%=      5-min Rain = 0
KTA1 140945Z 06007KT 26/20 A3007 RMK A01 T02550202  RH  073%=      5-min Rain = 0
KTA1 140946Z 06009KT 25/20 A3007 RMK A01 T02540202  RH  073%=      5-min Rain = 0
KTA1 140947Z 05008KT 25/20 A3007 RMK A01 T02540202  RH  073%=      5-min Rain = 0
KTA1 140948Z 05007KT 25/20 A3007 RMK A01 T02540202  RH  073%=      5-min Rain = 0
KTA1 140949Z 05007KT 25/20 A3007 RMK A01 T02540202  RH  073%=      5-min Rain = 0
KTA1 140950Z 04007KT 25/20 A3008 RMK A01 T02530202  RH  073%=      5-min Rain = 0
KTA1 140951Z 04007KT 25/20 A3008 RMK A01 T02530202  RH  073%=      5-min Rain = 0
KTA1 140952Z 04007KT 25/20 A3008 RMK A01 T02530202  RH  073%=      5-min Rain = 0
KTA1 140953Z 04007KT 25/20 A3008 RMK A01 T02530203  RH  074%=      5-min Rain = 0
KTA1 140954Z 05006KT 25/20 A3008 RMK A01 T02520202  RH  074%=      5-min Rain = 0
KTA1 140955Z 05006KT 25/20 A3008 RMK A01 T02520202  RH  074%=      5-min Rain = 0
KTA1 140956Z 05006KT 25/20 A3008 RMK A01 T02520202  RH  074%=      5-min Rain = 0
KTA1 140957Z 05007KT 25/20 A3008 RMK A01 T02520203  RH  074%=      5-min Rain = 0
KTA1 140958Z 05006KT 25/20 A3008 RMK A01 T02520202  RH  074%=      5-min Rain = 0
KTA1 140959Z 05007KT 25/20 A3008 RMK A01 T02510202  RH  074%=      5-min Rain = 0
KTA1 141000Z 05006KT 25/20 A3007 RMK A01 T02510202  RH  074%=      5-min Rain = 0
KTA1 141001Z 05007KT 25/20 A3007 RMK A01 T02520203  RH  074%=      5-min Rain = 0
KTA1 141002Z 05008KT 25/20 A3007 RMK A01 T02520203  RH  074%=      5-min Rain = 0
KTA1 141003Z 05007KT 25/20 A3007 RMK A01 T02510202  RH  074%=      5-min Rain = 0
KTA1 141004Z 06008KT 25/20 A3007 RMK A01 T02510202  RH  074%=      5-min Rain = 0
KTA1 141005Z 06008KT 25/20 A3007 RMK A01 T02510202  RH  074%=      5-min Rain = 0
KTA1 141006Z 06009KT 25/20 A3007 RMK A01 T02510202  RH  074%=      5-min Rain = 0
KTA1 141007Z 05008KT 25/20 A3008 RMK A01 T02510202  RH  074%=      5-min Rain = 0
KTA1 141008Z 05009KT 25/20 A3008 RMK A01 T02510202  RH  074%=      5-min Rain = 0
KTA1 141009Z 05008KT 25/20 A3008 RMK A01 T02510202  RH  074%=      5-min Rain = 0
KTA1 141010Z 05009KT 25/20 A3008 RMK A01 T02520202  RH  074%=      5-min Rain = 0
KTA1 141011Z 05009KT 25/20 A3008 RMK A01 T02510202  RH  074%=      5-min Rain = 0
KTA1 141012Z 05009KT 25/20 A3008 RMK A01 T02520203  RH  074%=      5-min Rain = 0
KTA1 141013Z 05008KT 25/20 A3008 RMK A01 T02520203  RH  074%=      5-min Rain = 0
KTA1 141014Z 05008KT 25/20 A3008 RMK A01 T02510202  RH  074%=      5-min Rain = 0
KTA1 141015Z 05008KT 25/20 A3008 RMK A01 T02510202  RH  074%=      5-min Rain = 0
KTA1 141016Z 05008KT 25/20 A3007 RMK A01 T02510202  RH  075%=      5-min Rain = 0
KTA1 141017Z 05008KT 25/20 A3007 RMK A01 T02500202  RH  075%=      5-min Rain = 0
KTA1 141018Z 05008KT 25/20 A3007 RMK A01 T02510202  RH  075%=      5-min Rain = 0
KTA1 141019Z 05008KT 25/20 A3007 RMK A01 T02500202  RH  075%=      5-min Rain = 0
KTA1 141020Z 06008KT 25/20 A3007 RMK A01 T02500202  RH  075%=      5-min Rain = 0
KTA1 141021Z 06008KT 25/20 A3007 RMK A01 T02500202  RH  075%=      5-min Rain = 0
KTA1 141022Z 06008KT 25/20 A3007 RMK A01 T02500202  RH  075%=      5-min Rain = 0
KTA1 141023Z 06009KT 25/20 A3007 RMK A01 T02500202  RH  075%=      5-min Rain = 0
KTA1 141024Z 06009KT 25/20 A3007 RMK A01 T02500202  RH  075%=      5-min Rain = 0
KTA1 141025Z 05008KT 25/20 A3007 RMK A01 T02500202  RH  075%=      5-min Rain = 0
KTA1 141026Z 06009KT 25/20 A3007 RMK A01 T02500202  RH  075%=      5-min Rain = 0
KTA1 141027Z 06008KT 25/20 A3007 RMK A01 T02500202  RH  075%=      5-min Rain = 0
KTA1 141028Z 05008KT 25/20 A3007 RMK A01 T02500202  RH  075%=      5-min Rain = 0
KTA1 141029Z 05008KT 25/20 A3008 RMK A01 T02500202  RH  075%=      5-min Rain = 0
KTA1 141030Z 05009KT 25/20 A3008 RMK A01 T02500202  RH  075%=      5-min Rain = 0
KTA1 141031Z 05009KT 25/20 A3008 RMK A01 T02490202  RH  075%=      5-min Rain = 0
KTA1 141032Z 05009KT 25/20 A3008 RMK A01 T02490202  RH  075%=      5-min Rain = 0
KTA1 141033Z 05008KT 25/20 A3008 RMK A01 T02490202  RH  075%=      5-min Rain = 0
KTA1 141034Z 05009KT 25/20 A3008 RMK A01 T02490202  RH  075%=      5-min Rain = 0
KTA1 141035Z 05008KT 25/20 A3008 RMK A01 T02490202  RH  075%=      5-min Rain = 0
KTA1 141036Z 05009KT 25/20 A3008 RMK A01 T02490202  RH  075%=      5-min Rain = 0
KTA1 141037Z 05008KT 25/20 A3008 RMK A01 T02490202  RH  075%=      5-min Rain = 0
KTA1 141038Z 05008KT 25/20 A3008 RMK A01 T02480202  RH  075%=      5-min Rain = 0
KTA1 141039Z 05008KT 25/20 A3008 RMK A01 T02480202  RH  076%=      5-min Rain = 0
KTA1 141040Z 05008KT 25/20 A3008 RMK A01 T02480202  RH  076%=      5-min Rain = 0
KTA1 141041Z 05010KT 25/20 A3008 RMK A01 T02480202  RH  076%=      5-min Rain = 0
KTA1 141042Z 05009KT 25/20 A3008 RMK A01 T02480202  RH  076%=      5-min Rain = 0
KTA1 141043Z 06009KT 25/20 A3008 RMK A01 T02480203  RH  076%=      5-min Rain = 0
KTA1 141044Z 06008KT 25/20 A3008 RMK A01 T02480202  RH  076%=      5-min Rain = 0
KTA1 141045Z 06008KT 25/20 A3008 RMK A01 T02480202  RH  076%=      5-min Rain = 0
KTA1 141046Z 06007KT 25/20 A3008 RMK A01 T02470202  RH  076%=      5-min Rain = 0
KTA1 141047Z 06008KT 25/20 A3008 RMK A01 T02470202  RH  076%=      5-min Rain = 0
KTA1 141048Z 06009KT 25/20 A3008 RMK A01 T02470202  RH  076%=      5-min Rain = 0
KTA1 141049Z 05009KT 25/20 A3008 RMK A01 T02470202  RH  076%=      5-min Rain = 0
KTA1 141050Z 06007KT 25/20 A3008 RMK A01 T02470202  RH  076%=      5-min Rain = 0
KTA1 141051Z 06007KT 25/20 A3008 RMK A01 T02470202  RH  076%=      5-min Rain = 0
KTA1 141052Z 05008KT 25/20 A3008 RMK A01 T02470202  RH  076%=      5-min Rain = 0
KTA1 141053Z 05007KT 25/20 A3008 RMK A01 T02460202  RH  076%=      5-min Rain = 0
KTA1 141054Z 06008KT 25/20 A3008 RMK A01 T02460202  RH  076%=      5-min Rain = 0
KTA1 141055Z 05007KT 25/20 A3008 RMK A01 T02460202  RH  076%=      5-min Rain = 0
KTA1 141056Z 05006KT 25/20 A3008 RMK A01 T02460202  RH  076%=      5-min Rain = 0
KTA1 141057Z 05007KT 25/20 A3008 RMK A01 T02460202  RH  077%=      5-min Rain = 0
KTA1 141058Z 05007KT 25/20 A3008 RMK A01 T02460203  RH  077%=      5-min Rain = 0
KTA1 141059Z 05007KT 25/20 A3008 RMK A01 T02450202  RH  077%=      5-min Rain = 0
KTA1 141100Z 05006KT 25/20 A3008 RMK A01 T02450202  RH  077%=      5-min Rain = 0
KTA1 141101Z 05007KT 25/20 A3008 RMK A01 T02450202  RH  077%=      5-min Rain = 0
KTA1 141102Z 04008KT 25/20 A3008 RMK A01 T02450202  RH  077%=      5-min Rain = 0
KTA1 141103Z 05008KT 24/20 A3008 RMK A01 T02440202  RH  077%=      5-min Rain = 0
KTA1 141104Z 05010KT 24/20 A3008 RMK A01 T02440201  RH  077%=      5-min Rain = 0
KTA1 141105Z 05012KT 25/20 A3008 RMK A01 T02450201  RH  076%=      5-min Rain = 0
KTA1 141106Z 04011KT 25/20 A3008 RMK A01 T02460201  RH  076%=      5-min Rain = 0
KTA1 141107Z 04010KT 25/20 A3009 RMK A01 T02470201  RH  075%=      5-min Rain = 0
KTA1 141108Z 04011KT 25/20 A3009 RMK A01 T02470200  RH  075%=      5-min Rain = 0
KTA1 141109Z 04011KT 25/20 A3009 RMK A01 T02470201  RH  075%=      5-min Rain = 0
KTA1 141110Z 04011KT 25/20 A3009 RMK A01 T02470200  RH  075%=      5-min Rain = 0
KTA1 141111Z 04010KT 25/20 A3009 RMK A01 T02470200  RH  075%=      5-min Rain = 0
KTA1 141112Z 04009KT 25/20 A3009 RMK A01 T02470200  RH  075%=      5-min Rain = 0
KTA1 141113Z 04008KT 25/20 A3009 RMK A01 T02470200  RH  075%=      5-min Rain = 0
KTA1 141114Z 04010KT 25/20 A3009 RMK A01 T02470200  RH  075%=      5-min Rain = 0
KTA1 141115Z 04010KT 25/20 A3009 RMK A01 T02470200  RH  075%=      5-min Rain = 0
KTA1 141116Z 05011KT 25/20 A3009 RMK A01 T02470200  RH  075%=      5-min Rain = 0
KTA1 141117Z 04012KT 25/20 A3009 RMK A01 T02470199  RH  075%=      5-min Rain = 0
KTA1 141118Z 05011KT 25/20 A3009 RMK A01 T02480199  RH  074%=      5-min Rain = 0
KTA1 141119Z 05013KT 25/20 A3009 RMK A01 T02480199  RH  074%=      5-min Rain = 0
KTA1 141120Z 04013KT 25/20 A3009 RMK A01 T02480199  RH  074%=      5-min Rain = 0
KTA1 141121Z 05010KT 25/20 A3009 RMK A01 T02480199  RH  074%=      5-min Rain = 0
KTA1 141122Z 05009KT 25/20 A3009 RMK A01 T02480199  RH  074%=      5-min Rain = 0
KTA1 141123Z 05012KT 25/20 A3009 RMK A01 T02480199  RH  074%=      5-min Rain = 0
KTA1 141124Z 05011KT 25/20 A3009 RMK A01 T02480199  RH  075%=      5-min Rain = 0
KTA1 141125Z 04013KT 25/20 A3009 RMK A01 T02480200  RH  075%=      5-min Rain = 0
KTA1 141126Z 05013KT 25/20 A3009 RMK A01 T02480199  RH  075%=      5-min Rain = 0
KTA1 141127Z 05013KT 25/20 A3009 RMK A01 T02480200  RH  074%=      5-min Rain = 0
KTA1 141128Z 05014KT 25/20 A3009 RMK A01 T02480199  RH  074%=      5-min Rain = 0
KTA1 141129Z 05010KT 25/20 A3009 RMK A01 T02480200  RH  074%=      5-min Rain = 0
KTA1 141130Z 05012KT 25/20 A3009 RMK A01 T02480199  RH  075%=      5-min Rain = 0
KTA1 141131Z 05013KT 25/20 A3009 RMK A01 T02470199  RH  075%=      5-min Rain = 0
KTA1 141132Z 05012KT 25/20 A3009 RMK A01 T02470200  RH  075%=      5-min Rain = 0
KTA1 141133Z 05013KT 25/20 A3009 RMK A01 T02470199  RH  075%=      5-min Rain = 0
KTA1 141134Z 05011KT 25/20 A3009 RMK A01 T02470200  RH  075%=      5-min Rain = 0
KTA1 141135Z 05012KT 25/20 A3009 RMK A01 T02470200  RH  075%=      5-min Rain = 0
KTA1 141136Z 05012KT 25/20 A3009 RMK A01 T02460200  RH  075%=      5-min Rain = 0
KTA1 141137Z 05012KT 25/20 A301 RMK A01 T02460200  RH  075%=      5-min Rain = 0
KTA1 141138Z 05011KT 25/20 A3009 RMK A01 T02460200  RH  075%=      5-min Rain = 0
KTA1 141139Z 05012KT 25/20 A301 RMK A01 T02460200  RH  075%=      5-min Rain = 0
KTA1 141140Z 05011KT 25/20 A301 RMK A01 T02460200  RH  075%=      5-min Rain = 0
KTA1 141141Z 05012KT 25/20 A301 RMK A01 T02460200  RH  075%=      5-min Rain = 0
KTA1 141142Z 05011KT 25/20 A301 RMK A01 T02460200  RH  076%=      5-min Rain = 0
KTA1 141143Z 05010KT 25/20 A301 RMK A01 T02460200  RH  076%=      5-min Rain = 0
KTA1 141144Z 05011KT 25/20 A301 RMK A01 T02450200  RH  076%=      5-min Rain = 0
KTA1 141145Z 05010KT 25/20 A301 RMK A01 T02460200  RH  076%=      5-min Rain = 0
KTA1 141146Z 05009KT 25/20 A301 RMK A01 T02450200  RH  076%=      5-min Rain = 0
KTA1 141147Z 05009KT 25/20 A301 RMK A01 T02450200  RH  076%=      5-min Rain = 0
KTA1 141148Z 05010KT 24/20 A301 RMK A01 T02440200  RH  076%=      5-min Rain = 0
KTA1 141149Z 05012KT 25/20 A301 RMK A01 T02450200  RH  076%=      5-min Rain = 0
KTA1 141150Z 05012KT 25/20 A301 RMK A01 T02450200  RH  076%=      5-min Rain = 0
KTA1 141151Z 05013KT 25/20 A301 RMK A01 T02450200  RH  076%=      5-min Rain = 0
KTA1 141152Z 04011KT 25/20 A301 RMK A01 T02450199  RH  076%=      5-min Rain = 0
KTA1 141153Z 05012KT 25/20 A301 RMK A01 T02450199  RH  076%=      5-min Rain = 0
KTA1 141154Z 05013KT 25/20 A301 RMK A01 T02450199  RH  076%=      5-min Rain = 0
KTA1 141155Z 05012KT 25/20 A301 RMK A01 T02450199  RH  075%=      5-min Rain = 0
KTA1 141156Z 05014KT 25/20 A301 RMK A01 T02450199  RH  075%=      5-min Rain = 0
KTA1 141157Z 05013KT 25/20 A301 RMK A01 T02450199  RH  075%=      5-min Rain = 0
KTA1 141158Z 05013KT 25/20 A301 RMK A01 T02450198  RH  075%=      5-min Rain = 0
KTA1 141159Z 05012KT 25/20 A301 RMK A01 T02450198  RH  075%=      5-min Rain = 0
KTA1 141200Z 05012KT 25/20 A301 RMK A01 T02450198  RH  075%=      5-min Rain = 0
KTA1 141201Z 05011KT 25/20 A301 RMK A01 T02450198  RH  075%=      5-min Rain = 0
KTA1 141202Z 05013KT 25/20 A301 RMK A01 T02450199  RH  075%=      5-min Rain = 0
KTA1 141203Z 05014KT 25/20 A301 RMK A01 T02450198  RH  075%=      5-min Rain = 0
KTA1 141204Z 05013KT 25/20 A301 RMK A01 T02450198  RH  075%=      5-min Rain = 0
KTA1 141205Z 05012KT 25/20 A301 RMK A01 T02450198  RH  075%=      5-min Rain = 0
KTA1 141206Z 05011KT 25/20 A301 RMK A01 T02450198  RH  075%=      5-min Rain = 0
KTA1 141207Z 05013KT 25/20 A3011 RMK A01 T02450198  RH  075%=      5-min Rain = 0
KTA1 141208Z 05011KT 24/20 A3011 RMK A01 T02440198  RH  075%=      5-min Rain = 0
KTA1 141209Z 05014KT 24/20 A3011 RMK A01 T02440198  RH  075%=      5-min Rain = 0
KTA1 141210Z 05014KT 25/20 A3011 RMK A01 T02450198  RH  075%=      5-min Rain = 0
KTA1 141211Z 05012KT 25/20 A3011 RMK A01 T02450198  RH  075%=      5-min Rain = 0
KTA1 141212Z 05012KT 25/20 A3011 RMK A01 T02450198  RH  075%=      5-min Rain = 0
KTA1 141213Z 05012KT 25/20 A3011 RMK A01 T02450198  RH  075%=      5-min Rain = 0
KTA1 141214Z 05014KT 25/20 A3011 RMK A01 T02450198  RH  075%=      5-min Rain = 0
KTA1 141215Z 05012KT 24/20 A3011 RMK A01 T02440198  RH  075%=      5-min Rain = 0
KTA1 141216Z 05012KT 24/20 A3011 RMK A01 T02440198  RH  075%=      5-min Rain = 0
KTA1 141217Z 05013KT 24/20 A3011 RMK A01 T02440197  RH  075%=      5-min Rain = 0
KTA1 141218Z 05013KT 24/20 A3011 RMK A01 T02440198  RH  075%=      5-min Rain = 0
KTA1 141219Z 05014KT 24/20 A3011 RMK A01 T02440198  RH  075%=      5-min Rain = 0
KTA1 141220Z 05013KT 24/20 A3011 RMK A01 T02440197  RH  075%=      5-min Rain = 0
KTA1 141221Z 05014KT 24/20 A3011 RMK A01 T02440198  RH  075%=      5-min Rain = 0
KTA1 141222Z 05014KT 24/20 A3011 RMK A01 T02440197  RH  075%=      5-min Rain = 0
KTA1 141223Z 05013G18KT 24/20 A3011 RMK A01 T02440197  RH  075%=      5-min Rain = 0
KTA1 141224Z 05013KT 24/20 A3011 RMK A01 T02440197  RH  075%=      5-min Rain = 0
KTA1 141225Z 05012KT 24/20 A3011 RMK A01 T02440197  RH  075%=      5-min Rain = 0
KTA1 141226Z 05012KT 24/20 A3011 RMK A01 T02440198  RH  075%=      5-min Rain = 0
KTA1 141227Z 05014KT 24/20 A3011 RMK A01 T02440198  RH  075%=      5-min Rain = 0
KTA1 141228Z 05014KT 24/20 A3011 RMK A01 T02440197  RH  075%=      5-min Rain = 0
KTA1 141229Z 05013KT 24/20 A3011 RMK A01 T02440198  RH  075%=      5-min Rain = 0
KTA1 141230Z 05012KT 24/20 A3011 RMK A01 T02440198  RH  075%=      5-min Rain = 0
KTA1 141231Z 05012KT 24/20 A3012 RMK A01 T02440198  RH  075%=      5-min Rain = 0
KTA1 141232Z 05012KT 24/20 A3012 RMK A01 T02440197  RH  075%=      5-min Rain = 0
KTA1 141233Z 05012KT 24/20 A3012 RMK A01 T02440198  RH  076%=      5-min Rain = 0
KTA1 141234Z 05011KT 24/20 A3012 RMK A01 T02430198  RH  076%=      5-min Rain = 0
KTA1 141235Z 05010KT 24/20 A3012 RMK A01 T02440198  RH  076%=      5-min Rain = 0
KTA1 141236Z 05011KT 24/20 A3012 RMK A01 T02440198  RH  075%=      5-min Rain = 0
KTA1 141237Z 05012KT 24/20 A3012 RMK A01 T02440197  RH  075%=      5-min Rain = 0
KTA1 141238Z 04013KT 24/20 A3012 RMK A01 T02430197  RH  075%=      5-min Rain = 0
KTA1 141239Z 04013KT 24/20 A3012 RMK A01 T02440197  RH  075%=      5-min Rain = 0
KTA1 141240Z 04013KT 24/20 A3012 RMK A01 T02440196  RH  075%=      5-min Rain = 0
KTA1 141241Z 04014KT 25/20 A3012 RMK A01 T02450196  RH  074%=      5-min Rain = 0
KTA1 141242Z 04013G18KT 25/20 A3013 RMK A01 T02450196  RH  074%=      5-min Rain = 0
KTA1 141243Z 04015KT 25/20 A3013 RMK A01 T02460196  RH  074%=      5-min Rain = 0
KTA1 141244Z 05017KT 25/20 A3013 RMK A01 T02460196  RH  074%=      5-min Rain = 0
KTA1 141245Z 04017KT 25/20 A3013 RMK A01 T02460196  RH  074%=      5-min Rain = 0
KTA1 141246Z 05016KT 25/20 A3013 RMK A01 T02460195  RH  073%=      5-min Rain = 0
KTA1 141247Z 05017KT 25/20 A3013 RMK A01 T02460195  RH  073%=      5-min Rain = 0
KTA1 141248Z 05015KT 25/20 A3013 RMK A01 T02460195  RH  073%=      5-min Rain = 0
KTA1 141249Z 04014KT 25/20 A3013 RMK A01 T02460195  RH  073%=      5-min Rain = 0
KTA1 141250Z 05013KT 25/20 A3013 RMK A01 T02470196  RH  073%=      5-min Rain = 0
KTA1 141251Z 05014KT 25/20 A3013 RMK A01 T02460195  RH  073%=      5-min Rain = 0
KTA1 141252Z 05013KT 25/20 A3013 RMK A01 T02460195  RH  073%=      5-min Rain = 0
KTA1 141253Z 05014KT 25/20 A3013 RMK A01 T02460195  RH  073%=      5-min Rain = 0
KTA1 141254Z 04013KT 25/20 A3013 RMK A01 T02460195  RH  073%=      5-min Rain = 0
KTA1 141255Z 04013KT 25/20 A3013 RMK A01 T02460195  RH  073%=      5-min Rain = 0
KTA1 141256Z 05016KT 25/20 A3013 RMK A01 T02460195  RH  073%=      5-min Rain = 0
KTA1 141257Z 05014G19KT 25/20 A3013 RMK A01 T02470195  RH  073%=      5-min Rain = 0
KTA1 141258Z 04017KT 25/20 A3013 RMK A01 T02470195  RH  073%=      5-min Rain = 0
KTA1 141259Z 05017KT 25/20 A3013 RMK A01 T02470195  RH  073%=      5-min Rain = 0
KTA1 141300Z 05013G18KT 25/20 A3013 RMK A01 T02470195  RH  073%=      5-min Rain = 0
KTA1 141301Z 05014KT 25/20 A3013 RMK A01 T02470195  RH  073%=      5-min Rain = 0
KTA1 141302Z 05014KT 25/20 A3013 RMK A01 T02470195  RH  073%=      5-min Rain = 0
KTA1 141303Z 05015KT 25/20 A3013 RMK A01 T02470195  RH  073%=      5-min Rain = 0
KTA1 141304Z 05014KT 25/20 A3013 RMK A01 T02470195  RH  073%=      5-min Rain = 0
KTA1 141305Z 05013KT 25/20 A3013 RMK A01 T02470195  RH  073%=      5-min Rain = 0
KTA1 141306Z 05014KT 25/20 A3013 RMK A01 T02480195  RH  072%=      5-min Rain = 0
KTA1 141307Z 05013KT 25/20 A3013 RMK A01 T02480195  RH  072%=      5-min Rain = 0
KTA1 141308Z 05013KT 25/20 A3013 RMK A01 T02480195  RH  072%=      5-min Rain = 0
KTA1 141309Z 05012KT 25/20 A3013 RMK A01 T02480196  RH  073%=      5-min Rain = 0
KTA1 141310Z 05014KT 25/20 A3013 RMK A01 T02480195  RH  072%=      5-min Rain = 0
KTA1 141311Z 05015KT 25/20 A3013 RMK A01 T02480195  RH  072%=      5-min Rain = 0
KTA1 141312Z 05013KT 25/20 A3013 RMK A01 T02480195  RH  073%=      5-min Rain = 0
KTA1 141313Z 04016KT 25/20 A3013 RMK A01 T02470195  RH  073%=      5-min Rain = 0
KTA1 141314Z 04015KT 25/20 A3014 RMK A01 T02470195  RH  073%=      5-min Rain = 0
KTA1 141315Z 04014KT 25/20 A3014 RMK A01 T02470195  RH  073%=      5-min Rain = 0
KTA1 141316Z 04016KT 25/20 A3014 RMK A01 T02470195  RH  073%=      5-min Rain = 0
KTA1 141317Z 05014KT 25/20 A3014 RMK A01 T02470195  RH  073%=      5-min Rain = 0
KTA1 141318Z 05015KT 25/20 A3014 RMK A01 T02480195  RH  072%=      5-min Rain = 0
KTA1 141319Z 04014KT 25/20 A3014 RMK A01 T02480195  RH  072%=      5-min Rain = 0
KTA1 141320Z 04013G18KT 25/20 A3014 RMK A01 T02480195  RH  072%=      5-min Rain = 0
KTA1 141321Z 04016G21KT 25/19 A3014 RMK A01 T02480194  RH  072%=      5-min Rain = 0
KTA1 141322Z 04015KT 25/19 A3014 RMK A01 T02480194  RH  072%=      5-min Rain = 0
KTA1 141323Z 04015G20KT 25/19 A3014 RMK A01 T02480193  RH  072%=      5-min Rain = 0
KTA1 141324Z 05013G18KT 25/19 A3014 RMK A01 T02490194  RH  072%=      5-min Rain = 0
KTA1 141325Z 05017KT 25/19 A3014 RMK A01 T02490194  RH  071%=      5-min Rain = 0
KTA1 141326Z 05018KT 25/19 A3014 RMK A01 T02490193  RH  071%=      5-min Rain = 0
KTA1 141327Z 04017G22KT 25/19 A3014 RMK A01 T02490193  RH  071%=      5-min Rain = 0
KTA1 141328Z 05017KT 25/19 A3014 RMK A01 T02480193  RH  071%=      5-min Rain = 0
KTA1 141329Z 05018KT 25/19 A3014 RMK A01 T02480193  RH  071%=      5-min Rain = 0
KTA1 141330Z 05019KT 25/19 A3014 RMK A01 T02480193  RH  071%=      5-min Rain = 0
KTA1 141331Z 05018KT 25/19 A3014 RMK A01 T02480193  RH  071%=      5-min Rain = 0
KTA1 141332Z 04015KT 25/19 A3014 RMK A01 T02480193  RH  071%=      5-min Rain = 0
KTA1 141333Z 05018KT 25/19 A3014 RMK A01 T02480193  RH  071%=      5-min Rain = 0
KTA1 141334Z 05017KT 25/19 A3014 RMK A01 T02490193  RH  071%=      5-min Rain = 0
KTA1 141335Z 05014G20KT 25/19 A3015 RMK A01 T02490193  RH  071%=      5-min Rain = 0
KTA1 141336Z 04012KT 25/19 A3015 RMK A01 T02480194  RH  072%=      5-min Rain = 0
KTA1 141337Z 04013KT 25/19 A3015 RMK A01 T02490194  RH  071%=      5-min Rain = 0
KTA1 141338Z 05014KT 25/19 A3015 RMK A01 T02500194  RH  071%=      5-min Rain = 0
KTA1 141339Z 05015KT 25/19 A3015 RMK A01 T02500194  RH  071%=      5-min Rain = 0
KTA1 141340Z 05015KT 25/19 A3015 RMK A01 T02500194  RH  071%=      5-min Rain = 0
KTA1 141341Z 05015KT 25/19 A3015 RMK A01 T02510194  RH  071%=      5-min Rain = 0
KTA1 141342Z 05015KT 25/19 A3015 RMK A01 T02500194  RH  071%=      5-min Rain = 0
KTA1 141343Z 06015KT 25/19 A3015 RMK A01 T02500194  RH  071%=      5-min Rain = 0
KTA1 141344Z 06015KT 25/19 A3015 RMK A01 T02500194  RH  071%=      5-min Rain = 0
KTA1 141345Z 05014KT 25/19 A3015 RMK A01 T02500194  RH  071%=      5-min Rain = 0
KTA1 141346Z 04013G18KT 25/20 A3015 RMK A01 T02500195  RH  071%=      5-min Rain = 0
KTA1 141347Z 05014KT 25/19 A3015 RMK A01 T02500194  RH  071%=      5-min Rain = 0
KTA1 141348Z 05013KT 25/19 A3015 RMK A01 T02510194  RH  071%=      5-min Rain = 0
KTA1 141349Z 04017KT 25/19 A3016 RMK A01 T02510194  RH  071%=      5-min Rain = 0
KTA1 141350Z 04016G21KT 25/19 A3016 RMK A01 T02510194  RH  070%=      5-min Rain = 0
KTA1 141351Z 04016KT 25/19 A3016 RMK A01 T02520194  RH  070%=      5-min Rain = 0
KTA1 141352Z 04015KT 25/20 A3016 RMK A01 T02510195  RH  071%=      5-min Rain = 0
KTA1 141353Z 05016KT 25/20 A3016 RMK A01 T02510195  RH  071%=      5-min Rain = 0
KTA1 141354Z 05017KT 25/20 A3016 RMK A01 T02520195  RH  071%=      5-min Rain = 0
KTA1 141355Z 05018KT 25/19 A3016 RMK A01 T02520194  RH  070%=      5-min Rain = 0
KTA1 141356Z 05015KT 25/19 A3016 RMK A01 T02520194  RH  070%=      5-min Rain = 0
KTA1 141357Z 04014KT 25/20 A3016 RMK A01 T02520195  RH  071%=      5-min Rain = 0
KTA1 141358Z 05012KT 25/20 A3016 RMK A01 T02520195  RH  070%=      5-min Rain = 0
KTA1 141359Z 04013KT 25/20 A3016 RMK A01 T02530196  RH  070%=      5-min Rain = 0
KTA1 141400Z 05014KT 25/20 A3016 RMK A01 T02540195  RH  070%=      5-min Rain = 0
KTA1 141401Z 06012KT 25/20 A3016 RMK A01 T02540196  RH  070%=      5-min Rain = 0
KTA1 141402Z 05013G18KT 25/20 A3016 RMK A01 T02540196  RH  070%=      5-min Rain = 0
KTA1 141403Z 04014KT 26/20 A3016 RMK A01 T02560196  RH  070%=      5-min Rain = 0
KTA1 141404Z 05015KT 26/20 A3016 RMK A01 T02560195  RH  069%=      5-min Rain = 0
KTA1 141405Z 05017KT 26/20 A3017 RMK A01 T02550196  RH  070%=      5-min Rain = 0
KTA1 141406Z 05015KT 25/20 A3017 RMK A01 T02540195  RH  070%=      5-min Rain = 0
KTA1 141407Z 05015KT 25/20 A3017 RMK A01 T02540196  RH  070%=      5-min Rain = 0
KTA1 141408Z 05015KT 26/20 A3017 RMK A01 T02550195  RH  070%=      5-min Rain = 0
KTA1 141409Z 05015KT 26/20 A3017 RMK A01 T02550195  RH  070%=      5-min Rain = 0
KTA1 141410Z 05015KT 25/20 A3017 RMK A01 T02540195  RH  070%=      5-min Rain = 0
KTA1 141411Z 05014KT 26/20 A3017 RMK A01 T02550195  RH  069%=      5-min Rain = 0
KTA1 141412Z 05015KT 26/19 A3017 RMK A01 T02560194  RH  069%=      5-min Rain = 0
KTA1 141413Z 05019KT 26/19 A3017 RMK A01 T02560194  RH  068%=      5-min Rain = 0
KTA1 141414Z 05015KT 26/19 A3017 RMK A01 T02550193  RH  069%=      5-min Rain = 0
KTA1 141415Z 04015G20KT 26/19 A3017 RMK A01 T02550194  RH  069%=      5-min Rain = 0
KTA1 141416Z 04019KT 26/19 A3017 RMK A01 T02550193  RH  069%=      5-min Rain = 0
KTA1 141417Z 04016KT 26/19 A3017 RMK A01 T02550193  RH  069%=      5-min Rain = 0
KTA1 141418Z 04014KT 26/19 A3017 RMK A01 T02550193  RH  069%=      5-min Rain = 0
KTA1 141419Z 04017KT 26/19 A3017 RMK A01 T02560194  RH  068%=      5-min Rain = 0
KTA1 141420Z 04018KT 26/19 A3017 RMK A01 T02560193  RH  068%=      5-min Rain = 0
KTA1 141421Z 05016KT 25/19 A3017 RMK A01 T02540192  RH  068%=      5-min Rain = 0
KTA1 141422Z 05016G21KT 25/19 A3017 RMK A01 T02540192  RH  069%=      5-min Rain = 0
KTA1 141423Z 04013G21KT 26/19 A3017 RMK A01 T02560193  RH  068%=      5-min Rain = 0
KTA1 141424Z 03017KT 26/19 A3017 RMK A01 T02570192  RH  067%=      5-min Rain = 0
KTA1 141425Z 03020KT 26/19 A3018 RMK A01 T02560191  RH  067%=      5-min Rain = 0
KTA1 141426Z 03021KT 26/19 A3018 RMK A01 T02550191  RH  068%=      5-min Rain = 0
KTA1 141427Z 04020KT 25/19 A3018 RMK A01 T02530191  RH  068%=      5-min Rain = 0
KTA1 141428Z 04017KT 25/19 A3018 RMK A01 T02540191  RH  068%=      5-min Rain = 0
KTA1 141429Z 04014KT 26/19 A3018 RMK A01 T02550191  RH  068%=      5-min Rain = 0
KTA1 141430Z 04018KT 26/19 A3018 RMK A01 T02560192  RH  068%=      5-min Rain = 0
KTA1 141431Z 03015KT 26/19 A3018 RMK A01 T02570192  RH  067%=      5-min Rain = 0
KTA1 141432Z 04014KT 26/19 A3018 RMK A01 T02560192  RH  067%=      5-min Rain = 0
KTA1 141433Z 03013G18KT 26/19 A3018 RMK A01 T02570192  RH  067%=      5-min Rain = 0
KTA1 141434Z 02015KT 26/19 A3018 RMK A01 T02580192  RH  067%=      5-min Rain = 0
KTA1 141435Z 02019KT 26/19 A3018 RMK A01 T02580189  RH  066%=      5-min Rain = 0
KTA1 141436Z 02020KT 26/19 A3018 RMK A01 T02560189  RH  066%=      5-min Rain = 0
KTA1 141437Z 02019KT 26/19 A3018 RMK A01 T02550188  RH  066%=      5-min Rain = 0
KTA1 141438Z 03018KT 26/19 A3018 RMK A01 T02550188  RH  067%=      5-min Rain = 0
KTA1 141439Z 03016KT 25/19 A3018 RMK A01 T02540189  RH  067%=      5-min Rain = 0
KTA1 141440Z 04016G21KT 26/19 A3018 RMK A01 T02550188  RH  067%=      5-min Rain = 0
KTA1 141441Z 03015G20KT 26/19 A3018 RMK A01 T02560189  RH  067%=      5-min Rain = 0
KTA1 141442Z 02016KT 26/19 A3018 RMK A01 T02570189  RH  066%=      5-min Rain = 0
KTA1 141443Z 03016KT 26/19 A3018 RMK A01 T02570189  RH  066%=      5-min Rain = 0
KTA1 141444Z 03019KT 26/19 A3019 RMK A01 T02570189  RH  066%=      5-min Rain = 0
KTA1 141445Z 03018KT 26/19 A3018 RMK A01 T02560188  RH  066%=      5-min Rain = 0
KTA1 141446Z 03018G24KT 25/19 A3019 RMK A01 T02540188  RH  067%=      5-min Rain = 0
KTA1 141447Z 03017G22KT 25/19 A3019 RMK A01 T02540188  RH  067%=      5-min Rain = 0
KTA1 141448Z 03018G23KT 25/19 A3019 RMK A01 T02540189  RH  067%=      5-min Rain = 0
KTA1 141449Z 02018KT 26/19 A3019 RMK A01 T02560190  RH  067%=      5-min Rain = 0
KTA1 141450Z 03018KT 26/19 A3019 RMK A01 T02570189  RH  066%=      5-min Rain = 0
KTA1 141451Z 03014KT 26/19 A3019 RMK A01 T02560190  RH  067%=      5-min Rain = 0
KTA1 141452Z 03016KT 26/19 A3019 RMK A01 T02560189  RH  066%=      5-min Rain = 0
KTA1 141453Z 04017KT 26/19 A3019 RMK A01 T02570190  RH  066%=      5-min Rain = 0
KTA1 141454Z 03015KT 26/19 A3019 RMK A01 T02580190  RH  066%=      5-min Rain = 0
KTA1 141455Z 03018KT 26/19 A3019 RMK A01 T02580190  RH  066%=      5-min Rain = 0
KTA1 141456Z 03018KT 26/19 A3019 RMK A01 T02550189  RH  067%=      5-min Rain = 0
KTA1 141457Z 04017KT 26/19 A3019 RMK A01 T02550191  RH  068%=      5-min Rain = 0
KTA1 141458Z 04019KT 26/19 A3019 RMK A01 T02550191  RH  067%=      5-min Rain = 0
KTA1 141459Z 04019KT 26/19 A3019 RMK A01 T02560191  RH  067%=      5-min Rain = 0
KTA1 141500Z 03015G20KT 26/19 A3019 RMK A01 T02560191  RH  068%=      5-min Rain = 0
KTA1 141501Z 03014KT 26/19 A3019 RMK A01 T02570192  RH  067%=      5-min Rain = 0
KTA1 141502Z 04014KT 26/19 A3019 RMK A01 T02580192  RH  067%=      5-min Rain = 0
KTA1 141503Z 03019KT 26/19 A3019 RMK A01 T02590192  RH  067%=      5-min Rain = 0
KTA1 141504Z 03017KT 26/19 A302 RMK A01 T02580191  RH  067%=      5-min Rain = 0
KTA1 141505Z 03020KT 26/19 A302 RMK A01 T02570191  RH  067%=      5-min Rain = 0
KTA1 141506Z 02022KT 26/19 A302 RMK A01 T02550191  RH  068%=      5-min Rain = 0
KTA1 141507Z 03018KT 25/19 A302 RMK A01 T02530191  RH  068%=      5-min Rain = 0
KTA1 141508Z 03019KT 25/19 A302 RMK A01 T02530191  RH  068%=      5-min Rain = 0
KTA1 141509Z 03017KT 25/19 A302 RMK A01 T02530191  RH  069%=      5-min Rain = 0
KTA1 141510Z 03015KT 25/19 A302 RMK A01 T02540192  RH  068%=      5-min Rain = 0
KTA1 141511Z 04019KT 26/19 A302 RMK A01 T02560192  RH  068%=      5-min Rain = 0
KTA1 141512Z 03020KT 26/19 A302 RMK A01 T02580192  RH  067%=      5-min Rain = 0
KTA1 141513Z 04018KT 26/19 A302 RMK A01 T02580191  RH  067%=      5-min Rain = 0
KTA1 141514Z 04019KT 26/19 A302 RMK A01 T02580192  RH  067%=      5-min Rain = 0
KTA1 141515Z 03019KT 26/19 A302 RMK A01 T02580192  RH  067%=      5-min Rain = 0
KTA1 141516Z 03015KT 26/19 A302 RMK A01 T02580192  RH  067%=      5-min Rain = 0
KTA1 141517Z 03017G22KT 26/19 A302 RMK A01 T02590194  RH  067%=      5-min Rain = 0
KTA1 141518Z 04018G25KT 26/19 A302 RMK A01 T02600194  RH  067%=      5-min Rain = 0
KTA1 141519Z 03020KT 26/19 A302 RMK A01 T02600194  RH  067%=      5-min Rain = 0
KTA1 141520Z 03019G24KT 26/19 A302 RMK A01 T02590194  RH  067%=      5-min Rain = 0
KTA1 141521Z 04019KT 26/19 A302 RMK A01 T02590194  RH  067%=      5-min Rain = 0
KTA1 141522Z 04018KT 26/19 A302 RMK A01 T02600194  RH  067%=      5-min Rain = 0
KTA1 141523Z 05018KT 26/19 A302 RMK A01 T02600194  RH  067%=      5-min Rain = 0
KTA1 141524Z 05018KT 26/19 A302 RMK A01 T02600194  RH  067%=      5-min Rain = 0
KTA1 141525Z 04017KT 26/19 A302 RMK A01 T02600194  RH  067%=      5-min Rain = 0
KTA1 141526Z 04017KT 26/19 A302 RMK A01 T02600194  RH  067%=      5-min Rain = 0
KTA1 141527Z 04019KT 26/19 A302 RMK A01 T02610194  RH  067%=      5-min Rain = 0
KTA1 141528Z 03016KT 26/19 A302 RMK A01 T02620194  RH  066%=      5-min Rain = 0
KTA1 141529Z 03019KT 26/19 A302 RMK A01 T02610194  RH  066%=      5-min Rain = 0
KTA1 141530Z 03017G22KT 26/20 A302 RMK A01 T02610195  RH  067%=      5-min Rain = 0
KTA1 141531Z 04019G24KT 26/20 A302 RMK A01 T02620195  RH  066%=      5-min Rain = 0
KTA1 141532Z 03016G21KT 26/20 A302 RMK A01 T02640195  RH  066%=      5-min Rain = 0
KTA1 141533Z 03018G25KT 27/20 A302 RMK A01 T02650195  RH  066%=      5-min Rain = 0
KTA1 141534Z 04017G22KT 27/20 A302 RMK A01 T02650196  RH  065%=      5-min Rain = 0
KTA1 141535Z 03016KT 27/20 A302 RMK A01 T02660195  RH  065%=      5-min Rain = 0
KTA1 141536Z 03015KT 27/20 A302 RMK A01 T02670196  RH  065%=      5-min Rain = 0
KTA1 141537Z 04013G19KT 27/20 A302 RMK A01 T02680196  RH  065%=      5-min Rain = 0
KTA1 141538Z 04016G23KT 27/20 A302 RMK A01 T02690196  RH  064%=      5-min Rain = 0
KTA1 141539Z 04019KT 27/20 A302 RMK A01 T02690195  RH  064%=      5-min Rain = 0
KTA1 141540Z 03014KT 27/20 A302 RMK A01 T02680195  RH  064%=      5-min Rain = 0
KTA1 141541Z 03019G24KT 27/20 A302 RMK A01 T02690196  RH  064%=      5-min Rain = 0
KTA1 141542Z 03016G22KT 27/20 A302 RMK A01 T02700195  RH  064%=      5-min Rain = 0
KTA1 141543Z 03016KT 27/20 A302 RMK A01 T02700196  RH  064%=      5-min Rain = 0
KTA1 141544Z 03019KT 27/20 A302 RMK A01 T02710196  RH  063%=      5-min Rain = 0
KTA1 141545Z 04019KT 27/20 A302 RMK A01 T02710196  RH  064%=      5-min Rain = 0
KTA1 141546Z 04018G23KT 27/20 A302 RMK A01 T02710196  RH  063%=      5-min Rain = 0
KTA1 141547Z 03018KT 27/20 A302 RMK A01 T02700196  RH  064%=      5-min Rain = 0
KTA1 141548Z 03020KT 27/20 A302 RMK A01 T02700195  RH  064%=      5-min Rain = 0
KTA1 141549Z 03016KT 27/20 A302 RMK A01 T02700196  RH  064%=      5-min Rain = 0
KTA1 141550Z 04016KT 27/20 A302 RMK A01 T02720197  RH  064%=      5-min Rain = 0
KTA1 141551Z 04018KT 27/20 A302 RMK A01 T02740196  RH  062%=      5-min Rain = 0
KTA1 141552Z 04015KT 28/20 A302 RMK A01 T02750195  RH  062%=      5-min Rain = 0
KTA1 141553Z 03016KT 28/20 A302 RMK A01 T02750195  RH  062%=      5-min Rain = 0
KTA1 141554Z 05016KT 27/20 A302 RMK A01 T02740196  RH  062%=      5-min Rain = 0
KTA1 141555Z 05017KT 28/20 A302 RMK A01 T02760195  RH  062%=      5-min Rain = 0
KTA1 141556Z 05017KT 28/20 A302 RMK A01 T02760195  RH  061%=      5-min Rain = 0
KTA1 141557Z 05021KT 28/20 A302 RMK A01 T02770195  RH  061%=      5-min Rain = 0
KTA1 141558Z 05019KT 28/19 A302 RMK A01 T02760194  RH  061%=      5-min Rain = 0
KTA1 141559Z 05018KT 28/20 A302 RMK A01 T02760195  RH  061%=      5-min Rain = 0
KTA1 141600Z 05017KT 28/19 A302 RMK A01 T02770194  RH  061%=      5-min Rain = 0
KTA1 141601Z 05017KT 28/19 A302 RMK A01 T02760194  RH  061%=      5-min Rain = 0
KTA1 141602Z 05020KT 28/19 A302 RMK A01 T02750194  RH  061%=      5-min Rain = 0
KTA1 141603Z 05017KT 28/19 A302 RMK A01 T02750193  RH  061%=      5-min Rain = 0
KTA1 141604Z 05017KT 28/19 A302 RMK A01 T02770194  RH  061%=      5-min Rain = 0
KTA1 141605Z 04016KT 28/19 A302 RMK A01 T02770194  RH  060%=      5-min Rain = 0
KTA1 141606Z 05016G21KT 28/20 A302 RMK A01 T02760195  RH  061%=      5-min Rain = 0
KTA1 141607Z 05015KT 28/20 A302 RMK A01 T02780195  RH  061%=      5-min Rain = 0
KTA1 141608Z 05017KT 28/20 A302 RMK A01 T02800196  RH  060%=      5-min Rain = 0
KTA1 141609Z 05016KT 28/20 A302 RMK A01 T02810195  RH  060%=      5-min Rain = 0
KTA1 141610Z 05018KT 28/20 A302 RMK A01 T02810195  RH  060%=      5-min Rain = 0
KTA1 141611Z 04018KT 28/20 A302 RMK A01 T02800195  RH  060%=      5-min Rain = 0
KTA1 141612Z 04016KT 28/20 A302 RMK A01 T02790195  RH  060%=      5-min Rain = 0
KTA1 141613Z 05017KT 28/20 A302 RMK A01 T02780195  RH  061%=      5-min Rain = 0
KTA1 141614Z 05016KT 28/20 A302 RMK A01 T02770195  RH  061%=      5-min Rain = 0
KTA1 141615Z 06017KT 28/20 A302 RMK A01 T02790196  RH  061%=      5-min Rain = 0
KTA1 141616Z 06015KT 28/20 A302 RMK A01 T02810196  RH  060%=      5-min Rain = 0
KTA1 141617Z 06016KT 28/20 A302 RMK A01 T02810196  RH  060%=      5-min Rain = 0
KTA1 141618Z 06018G24KT 28/20 A302 RMK A01 T02820196  RH  060%=      5-min Rain = 0
KTA1 141619Z 06018G23KT 28/20 A302 RMK A01 T02820195  RH  059%=      5-min Rain = 0
KTA1 141620Z 05017KT 28/20 A302 RMK A01 T02820196  RH  060%=      5-min Rain = 0
KTA1 141621Z 05017KT 28/20 A302 RMK A01 T02830196  RH  059%=      5-min Rain = 0
KTA1 141622Z 06015G21KT 28/20 A302 RMK A01 T02830196  RH  059%=      5-min Rain = 0
KTA1 141623Z 05018KT 28/20 A3021 RMK A01 T02820196  RH  060%=      5-min Rain = 0
KTA1 141624Z 05016KT 28/20 A302 RMK A01 T02810196  RH  060%=      5-min Rain = 0
KTA1 141625Z 05017KT 28/20 A302 RMK A01 T02820196  RH  060%=      5-min Rain = 0
KTA1 141626Z 04012KT 28/20 A302 RMK A01 T02840197  RH  059%=      5-min Rain = 0
KTA1 141627Z 05012G19KT 29/20 A302 RMK A01 T02870198  RH  059%=      5-min Rain = 0
KTA1 141628Z 05017G23KT 29/20 A3021 RMK A01 T02890196  RH  057%=      5-min Rain = 0
KTA1 141629Z 05015KT 29/20 A3021 RMK A01 T02890197  RH  058%=      5-min Rain = 0
KTA1 141630Z 05015KT 29/20 A3021 RMK A01 T02890196  RH  057%=      5-min Rain = 0
KTA1 141631Z 06018KT 29/20 A3021 RMK A01 T02880197  RH  058%=      5-min Rain = 0
KTA1 141632Z 04017KT 29/20 A3021 RMK A01 T02870197  RH  058%=      5-min Rain = 0
KTA1 141633Z 05016KT 29/20 A3021 RMK A01 T02860196  RH  058%=      5-min Rain = 0
KTA1 141634Z 04015KT 29/20 A3021 RMK A01 T02850197  RH  059%=      5-min Rain = 0
KTA1 141635Z 05018KT 29/20 A3021 RMK A01 T02860197  RH  058%=      5-min Rain = 0
KTA1 141636Z 05017KT 29/20 A3021 RMK A01 T02860197  RH  059%=      5-min Rain = 0
KTA1 141637Z 04016KT 29/20 A3021 RMK A01 T02860198  RH  059%=      5-min Rain = 0
KTA1 141638Z 05018G23KT 29/20 A3021 RMK A01 T02860197  RH  059%=      5-min Rain = 0
KTA1 141639Z 04018KT 29/20 A3021 RMK A01 T02850198  RH  059%=      5-min Rain = 0
KTA1 141640Z 06017KT 29/20 A3021 RMK A01 T02860198  RH  059%=      5-min Rain = 0
KTA1 141641Z 04019KT 29/20 A3021 RMK A01 T02880197  RH  058%=      5-min Rain = 0
KTA1 141642Z 03020KT 29/20 A3021 RMK A01 T02890195  RH  057%=      5-min Rain = 0
KTA1 141643Z 03018G23KT 29/20 A3021 RMK A01 T02880195  RH  057%=      5-min Rain = 0
KTA1 141644Z 04020KT 29/20 A3021 RMK A01 T02880195  RH  057%=      5-min Rain = 0
KTA1 141645Z 04015KT 29/20 A3021 RMK A01 T02880196  RH  058%=      5-min Rain = 0
KTA1 141646Z 04019KT 29/20 A3021 RMK A01 T02910196  RH  057%=      5-min Rain = 0
KTA1 141647Z 04014KT 29/20 A3021 RMK A01 T02900195  RH  057%=      5-min Rain = 0
KTA1 141648Z 05020KT 29/20 A3021 RMK A01 T02880195  RH  057%=      5-min Rain = 0
KTA1 141649Z 05020KT 29/19 A3021 RMK A01 T02880194  RH  057%=      5-min Rain = 0
KTA1 141650Z 06021KT 29/19 A3021 RMK A01 T02880194  RH  057%=      5-min Rain = 0
KTA1 141651Z 05021G26KT 29/19 A3021 RMK A01 T02890193  RH  056%=      5-min Rain = 0
KTA1 141652Z 05016G21KT 29/19 A3021 RMK A01 T02900193  RH  056%=      5-min Rain = 0
KTA1 141653Z 05019KT 29/19 A3021 RMK A01 T02920194  RH  056%=      5-min Rain = 0
KTA1 141654Z 05017KT 29/19 A302 RMK A01 T02900194  RH  056%=      5-min Rain = 0
KTA1 141655Z 05017KT 29/19 A302 RMK A01 T02900194  RH  056%=      5-min Rain = 0
KTA1 141656Z 05015KT 29/20 A302 RMK A01 T02910195  RH  056%=      5-min Rain = 0
KTA1 141657Z 05014KT 29/20 A302 RMK A01 T02920195  RH  056%=      5-min Rain = 0
KTA1 141658Z 05017KT 29/20 A302 RMK A01 T02930195  RH  056%=      5-min Rain = 0
KTA1 141659Z 05017KT 29/20 A302 RMK A01 T02920196  RH  056%=      5-min Rain = 0
KTA1 141700Z 05018KT 29/20 A302 RMK A01 T02920195  RH  056%=      5-min Rain = 0
KTA1 141701Z 05020KT 29/19 A302 RMK A01 T02940193  RH  055%=      5-min Rain = 0
KTA1 141702Z 04016KT 29/19 A302 RMK A01 T02930192  RH  055%=      5-min Rain = 0
KTA1 141703Z 05017KT 29/19 A302 RMK A01 T02920193  RH  055%=      5-min Rain = 0
KTA1 141704Z 05016KT 29/19 A302 RMK A01 T02930192  RH  055%=      5-min Rain = 0
KTA1 141705Z 05016KT 29/19 A302 RMK A01 T02930192  RH  055%=      5-min Rain = 0
KTA1 141706Z 05014KT 29/19 A302 RMK A01 T02920193  RH  055%=      5-min Rain = 0
KTA1 141707Z 06017KT 29/19 A302 RMK A01 T02930192  RH  055%=      5-min Rain = 0
KTA1 141708Z 07016KT 29/19 A302 RMK A01 T02920192  RH  055%=      5-min Rain = 0
KTA1 141709Z 06016KT 29/19 A302 RMK A01 T02920193  RH  055%=      5-min Rain = 0
KTA1 141710Z 05014KT 29/19 A302 RMK A01 T02930194  RH  055%=      5-min Rain = 0
KTA1 141711Z 05014KT 29/19 A302 RMK A01 T02930194  RH  055%=      5-min Rain = 0
KTA1 141712Z 06012KT 29/20 A302 RMK A01 T02940195  RH  055%=      5-min Rain = 0
KTA1 141713Z 06012KT 30/20 A302 RMK A01 T02970195  RH  055%=      5-min Rain = 0
KTA1 141714Z 06014G20KT 30/20 A302 RMK A01 T02970196  RH  055%=      5-min Rain = 0
KTA1 141715Z 06016KT 30/20 A302 RMK A01 T02970196  RH  055%=      5-min Rain = 0
KTA1 141716Z 05013KT 30/20 A302 RMK A01 T02960196  RH  055%=      5-min Rain = 0
KTA1 141717Z 04013KT 30/20 A302 RMK A01 T02980197  RH  055%=      5-min Rain = 0
KTA1 141718Z 05016KT 30/20 A302 RMK A01 T03000195  RH  053%=      5-min Rain = 0
KTA1 141719Z 06016KT 30/20 A302 RMK A01 T02980195  RH  054%=      5-min Rain = 0
KTA1 141720Z 06015KT 30/20 A302 RMK A01 T02980195  RH  054%=      5-min Rain = 0
KTA1 141721Z 06016KT 30/20 A3019 RMK A01 T02980195  RH  054%=      5-min Rain = 0
KTA1 141722Z 07015KT 30/20 A3019 RMK A01 T02980195  RH  054%=      5-min Rain = 0
KTA1 141723Z 07016KT 30/20 A3019 RMK A01 T02970195  RH  054%=      5-min Rain = 0
KTA1 141724Z 06016KT 30/20 A3019 RMK A01 T02960195  RH  055%=      5-min Rain = 0
KTA1 141725Z 06012G17KT 29/20 A3019 RMK A01 T02940196  RH  055%=      5-min Rain = 0
KTA1 141726Z 06011KT 30/20 A3019 RMK A01 T02980197  RH  055%=      5-min Rain = 0
KTA1 141727Z 06011KT 30/20 A3019 RMK A01 T02990197  RH  054%=      5-min Rain = 0
KTA1 141728Z 07011KT 30/20 A3019 RMK A01 T02990198  RH  055%=      5-min Rain = 0
KTA1 141729Z 06013KT 30/20 A3019 RMK A01 T03020198  RH  053%=      5-min Rain = 0
KTA1 141730Z 06015KT 30/20 A3019 RMK A01 T03040196  RH  052%=      5-min Rain = 0
KTA1 141731Z 05014KT 30/20 A3018 RMK A01 T03010196  RH  053%=      5-min Rain = 0
KTA1 141732Z 05012G17KT 30/20 A3018 RMK A01 T02990195  RH  054%=      5-min Rain = 0
KTA1 141733Z 05015KT 30/20 A3018 RMK A01 T02990195  RH  054%=      5-min Rain = 0
KTA1 141734Z 06014KT 30/19 A3018 RMK A01 T03000194  RH  053%=      5-min Rain = 0
KTA1 141735Z 06015KT 30/19 A3018 RMK A01 T03010194  RH  053%=      5-min Rain = 0
KTA1 141736Z 06016KT 30/19 A3019 RMK A01 T03020194  RH  052%=      5-min Rain = 0
KTA1 141737Z 06013KT 30/19 A3018 RMK A01 T02990193  RH  053%=      5-min Rain = 0
KTA1 141738Z 05014KT 30/20 A3018 RMK A01 T02980195  RH  054%=      5-min Rain = 0
KTA1 141739Z 05011KT 30/20 A3018 RMK A01 T02990196  RH  054%=      5-min Rain = 0
KTA1 141740Z 06011KT 30/20 A3018 RMK A01 T03000196  RH  054%=      5-min Rain = 0
KTA1 141741Z 07013KT 30/20 A3018 RMK A01 T03010197  RH  054%=      5-min Rain = 0
KTA1 141742Z 07011KT 30/20 A3018 RMK A01 T03020195  RH  053%=      5-min Rain = 0
KTA1 141743Z 05008KT 30/20 A3018 RMK A01 T03010196  RH  053%=      5-min Rain = 0
KTA1 141744Z 06012KT 30/20 A3018 RMK A01 T03010197  RH  054%=      5-min Rain = 0
KTA1 141745Z 08011KT 30/20 A3018 RMK A01 T03020197  RH  053%=      5-min Rain = 0
KTA1 141746Z 07011KT 30/20 A3018 RMK A01 T03030197  RH  053%=      5-min Rain = 0
KTA1 141747Z 07010KT 30/20 A3018 RMK A01 T03040196  RH  053%=      5-min Rain = 0
KTA1 141748Z 07013KT 30/20 A3018 RMK A01 T03040196  RH  052%=      5-min Rain = 0
KTA1 141749Z 06012KT 31/20 A3018 RMK A01 T03060196  RH  052%=      5-min Rain = 0
KTA1 141750Z 06011KT 31/20 A3018 RMK A01 T03070196  RH  051%=      5-min Rain = 0
KTA1 141751Z 07011KT 31/20 A3018 RMK A01 T03050197  RH  052%=      5-min Rain = 0
KTA1 141752Z 07013KT 31/20 A3018 RMK A01 T03060196  RH  052%=      5-min Rain = 0
KTA1 141753Z 07010KT 31/20 A3018 RMK A01 T03070197  RH  052%=      5-min Rain = 0
KTA1 141754Z 07012KT 31/20 A3018 RMK A01 T03080197  RH  052%=      5-min Rain = 0
KTA1 141755Z 08011KT 31/20 A3017 RMK A01 T03070196  RH  052%=      5-min Rain = 0
KTA1 141756Z 07011KT 31/20 A3018 RMK A01 T03070198  RH  052%=      5-min Rain = 0
KTA1 141757Z 04008KT 31/20 A3017 RMK A01 T03090198  RH  052%=      5-min Rain = 0
KTA1 141758Z 06011KT 31/20 A3017 RMK A01 T03080198  RH  052%=      5-min Rain = 0
KTA1 141759Z 08013KT 31/20 A3017 RMK A01 T03080196  RH  051%=      5-min Rain = 0
KTA1 141800Z 06016KT 31/20 A3017 RMK A01 T03090196  RH  051%=      5-min Rain = 0
KTA1 141801Z 06014KT 31/20 A3017 RMK A01 T03080196  RH  051%=      5-min Rain = 0
KTA1 141802Z 07013KT 31/20 A3017 RMK A01 T03080196  RH  051%=      5-min Rain = 0
KTA1 141803Z 07013KT 31/20 A3017 RMK A01 T03080196  RH  051%=      5-min Rain = 0
KTA1 141804Z 07012KT 31/20 A3017 RMK A01 T03080195  RH  051%=      5-min Rain = 0
KTA1 141805Z 07009KT 31/19 A3017 RMK A01 T03080194  RH  051%=      5-min Rain = 0
KTA1 141806Z 07012G17KT 31/19 A3017 RMK A01 T03080194  RH  051%=      5-min Rain = 0
KTA1 141807Z 07015KT 31/19 A3017 RMK A01 T03080194  RH  051%=      5-min Rain = 0
KTA1 141808Z 06012KT 31/20 A3017 RMK A01 T03090195  RH  051%=      5-min Rain = 0
KTA1 141809Z 07011KT 31/20 A3017 RMK A01 T03100195  RH  050%=      5-min Rain = 0
KTA1 141810Z 07014KT 31/20 A3017 RMK A01 T03100195  RH  050%=      5-min Rain = 0
KTA1 141811Z 07014KT 31/19 A3017 RMK A01 T03110194  RH  050%=      5-min Rain = 0
KTA1 141812Z 07011KT 31/19 A3017 RMK A01 T03100194  RH  050%=      5-min Rain = 0
KTA1 141813Z 07012KT 31/20 A3017 RMK A01 T03110195  RH  050%=      5-min Rain = 0
KTA1 141814Z 07014KT 31/19 A3017 RMK A01 T03110194  RH  050%=      5-min Rain = 0
KTA1 141815Z 07012KT 31/19 A3017 RMK A01 T03090191  RH  049%=      5-min Rain = 0
KTA1 141816Z 06011KT 31/19 A3017 RMK A01 T03080193  RH  051%=      5-min Rain = 0
KTA1 141817Z 07009KT 31/19 A3017 RMK A01 T03070194  RH  051%=      5-min Rain = 0
KTA1 141818Z 08010KT 31/19 A3016 RMK A01 T03080194  RH  051%=      5-min Rain = 0
KTA1 141819Z 08014KT 31/20 A3017 RMK A01 T03090195  RH  051%=      5-min Rain = 0
KTA1 141820Z 07014KT 31/19 A3016 RMK A01 T03110194  RH  050%=      5-min Rain = 0
KTA1 141821Z 07013G18KT 31/20 A3016 RMK A01 T03120195  RH  050%=      5-min Rain = 0
KTA1 141822Z 07011KT 31/20 A3016 RMK A01 T03120195  RH  050%=      5-min Rain = 0
KTA1 141823Z 07012KT 31/19 A3016 RMK A01 T03110194  RH  050%=      5-min Rain = 0
KTA1 141824Z 07012KT 31/19 A3016 RMK A01 T03090193  RH  050%=      5-min Rain = 0
KTA1 141825Z 08011KT 31/19 A3016 RMK A01 T03100193  RH  050%=      5-min Rain = 0
KTA1 141826Z 08011KT 31/19 A3016 RMK A01 T03110192  RH  049%=      5-min Rain = 0
KTA1 141827Z 07013KT 31/19 A3016 RMK A01 T03120194  RH  050%=      5-min Rain = 0
KTA1 141828Z 07011KT 31/19 A3016 RMK A01 T03140194  RH  049%=      5-min Rain = 0
KTA1 141829Z 07010KT 32/20 A3016 RMK A01 T03170195  RH  049%=      5-min Rain = 0
KTA1 141830Z 06014KT 32/19 A3016 RMK A01 T03200192  RH  047%=      5-min Rain = 0
KTA1 141831Z 06012KT 32/19 A3016 RMK A01 T03170190  RH  047%=      5-min Rain = 0
KTA1 141832Z 06009KT 32/19 A3016 RMK A01 T03160190  RH  047%=      5-min Rain = 0
KTA1 141833Z 06010KT 32/19 A3016 RMK A01 T03150190  RH  048%=      5-min Rain = 0
KTA1 141834Z 08013KT 31/19 A3016 RMK A01 T03130192  RH  048%=      5-min Rain = 0
KTA1 141835Z 08012KT 32/19 A3016 RMK A01 T03160192  RH  048%=      5-min Rain = 0
KTA1 141836Z 07013KT 32/19 A3016 RMK A01 T03160191  RH  047%=      5-min Rain = 0
KTA1 141837Z 05012KT 32/19 A3016 RMK A01 T03160193  RH  048%=      5-min Rain = 0
KTA1 141838Z 06011KT 32/19 A3016 RMK A01 T03180194  RH  048%=      5-min Rain = 0
KTA1 141839Z 07011KT 32/20 A3016 RMK A01 T03210195  RH  047%=      5-min Rain = 0
KTA1 141840Z 05012KT 32/20 A3016 RMK A01 T03210195  RH  047%=      5-min Rain = 0
KTA1 141841Z 06008KT 32/19 A3015 RMK A01 T03160193  RH  048%=      5-min Rain = 0
KTA1 141842Z 09013KT 32/19 A3015 RMK A01 T03150193  RH  048%=      5-min Rain = 0
KTA1 141843Z 07014KT 32/19 A3016 RMK A01 T03160190  RH  047%=      5-min Rain = 0
KTA1 141844Z 05014KT 32/19 A3015 RMK A01 T03180190  RH  047%=      5-min Rain = 0
KTA1 141845Z 07009KT 32/19 A3015 RMK A01 T03190192  RH  047%=      5-min Rain = 0
KTA1 141846Z 07008KT 32/19 A3015 RMK A01 T03240194  RH  046%=      5-min Rain = 0
KTA1 141847Z 06015KT 33/19 A3015 RMK A01 T03250189  RH  045%=      5-min Rain = 0
KTA1 141848Z 05016KT 32/19 A3015 RMK A01 T03230185  RH  044%=      5-min Rain = 0
KTA1 141849Z 06012KT 32/19 A3015 RMK A01 T03190186  RH  045%=      5-min Rain = 0
KTA1 141850Z 07010KT 32/19 A3015 RMK A01 T03190187  RH  046%=      5-min Rain = 0
KTA1 141851Z 05012G17KT 32/19 A3015 RMK A01 T03210189  RH  046%=      5-min Rain = 0
KTA1 141852Z 07009KT 32/19 A3015 RMK A01 T03210189  RH  046%=      5-min Rain = 0
KTA1 141853Z 07009KT 32/19 A3015 RMK A01 T03200189  RH  046%=      5-min Rain = 0
KTA1 141854Z 07011KT 32/19 A3015 RMK A01 T03200190  RH  046%=      5-min Rain = 0
KTA1 141855Z 06015KT 32/19 A3015 RMK A01 T03200191  RH  046%=      5-min Rain = 0
KTA1 141856Z 06015KT 32/19 A3015 RMK A01 T03190190  RH  046%=      5-min Rain = 0
KTA1 141857Z 05009KT 32/19 A3015 RMK A01 T03170190  RH  047%=      5-min Rain = 0
KTA1 141858Z 06008KT 32/19 A3014 RMK A01 T03190192  RH  047%=      5-min Rain = 0
KTA1 141859Z 06008KT 32/19 A3014 RMK A01 T03200191  RH  046%=      5-min Rain = 0
KTA1 141900Z 05009KT 32/19 A3014 RMK A01 T03160189  RH  047%=      5-min Rain = 0
KTA1 141901Z 06011KT 32/19 A3014 RMK A01 T03200190  RH  046%=      5-min Rain = 0
KTA1 141902Z 08010KT 33/19 A3014 RMK A01 T03250188  RH  044%=      5-min Rain = 0
KTA1 141903Z 08010KT 33/19 A3014 RMK A01 T03270190  RH  044%=      5-min Rain = 0
KTA1 141904Z 09011KT 33/19 A3014 RMK A01 T03270190  RH  044%=      5-min Rain = 0
KTA1 141905Z 09009KT 33/19 A3014 RMK A01 T03250190  RH  045%=      5-min Rain = 0
KTA1 141906Z 07010G15KT 32/19 A3014 RMK A01 T03230190  RH  045%=      5-min Rain = 0
KTA1 141907Z 06011KT 32/19 A3014 RMK A01 T03240190  RH  045%=      5-min Rain = 0
KTA1 141908Z 08014KT 33/19 A3014 RMK A01 T03270188  RH  044%=      5-min Rain = 0
KTA1 141909Z 07011KT 33/19 A3014 RMK A01 T03280188  RH  044%=      5-min Rain = 0
KTA1 141910Z 08012KT 33/19 A3014 RMK A01 T03270188  RH  044%=      5-min Rain = 0
KTA1 141911Z 07012KT 33/19 A3014 RMK A01 T03280187  RH  043%=      5-min Rain = 0
KTA1 141912Z 06014KT 33/19 A3014 RMK A01 T03300188  RH  043%=      5-min Rain = 0
KTA1 141913Z 06010KT 33/19 A3014 RMK A01 T03270186  RH  043%=      5-min Rain = 0
KTA1 141914Z 06009KT 32/19 A3014 RMK A01 T03240188  RH  045%=      5-min Rain = 0
KTA1 141915Z 05010KT 33/19 A3014 RMK A01 T03270189  RH  044%=      5-min Rain = 0
KTA1 141916Z 04012G17KT 33/19 A3014 RMK A01 T03280187  RH  043%=      5-min Rain = 0
KTA1 141917Z 03011KT 33/19 A3014 RMK A01 T03250188  RH  044%=      5-min Rain = 0
KTA1 141918Z 07009KT 33/19 A3014 RMK A01 T03280188  RH  044%=      5-min Rain = 0
KTA1 141919Z 06014KT 33/19 A3014 RMK A01 T03300188  RH  043%=      5-min Rain = 0
KTA1 141920Z 06013KT 33/19 A3014 RMK A01 T03320187  RH  042%=      5-min Rain = 0
KTA1 141921Z 06012KT 33/19 A3014 RMK A01 T03290186  RH  043%=      5-min Rain = 0
KTA1 141922Z 06012KT 33/19 A3014 RMK A01 T03270187  RH  043%=      5-min Rain = 0
KTA1 141923Z 05012KT 33/19 A3014 RMK A01 T03290188  RH  043%=      5-min Rain = 0
KTA1 141924Z 06012KT 33/19 A3014 RMK A01 T03290188  RH  043%=      5-min Rain = 0
KTA1 141925Z 07010KT 33/19 A3013 RMK A01 T03290187  RH  043%=      5-min Rain = 0
KTA1 141926Z 07009KT 33/19 A3013 RMK A01 T03260186  RH  044%=      5-min Rain = 0
KTA1 141927Z 05008KT 33/19 A3013 RMK A01 T03250187  RH  044%=      5-min Rain = 0
KTA1 141928Z 06008KT 33/19 A3013 RMK A01 T03280186  RH  043%=      5-min Rain = 0
KTA1 141929Z 05012KT 33/19 A3013 RMK A01 T03280187  RH  043%=      5-min Rain = 0
KTA1 141930Z 05012KT 33/18 A3013 RMK A01 T03310183  RH  042%=      5-min Rain = 0
KTA1 141931Z 05012G18KT 33/18 A3013 RMK A01 T03320182  RH  041%=      5-min Rain = 0
KTA1 141932Z 06017KT 33/18 A3013 RMK A01 T03320182  RH  041%=      5-min Rain = 0
KTA1 141933Z 07013KT 33/18 A3013 RMK A01 T03330183  RH  041%=      5-min Rain = 0
KTA1 141934Z 07010KT 33/18 A3013 RMK A01 T03330182  RH  041%=      5-min Rain = 0
KTA1 141935Z 06011KT 33/18 A3013 RMK A01 T03330182  RH  041%=      5-min Rain = 0
KTA1 141936Z 06013KT 33/18 A3013 RMK A01 T03320181  RH  041%=      5-min Rain = 0
KTA1 141937Z 04013KT 33/18 A3013 RMK A01 T03320181  RH  041%=      5-min Rain = 0
KTA1 141938Z 04012KT 33/18 A3013 RMK A01 T03320182  RH  041%=      5-min Rain = 0
KTA1 141939Z 05011KT 33/18 A3013 RMK A01 T03310182  RH  041%=      5-min Rain = 0
KTA1 141940Z 07014G20KT 33/18 A3013 RMK A01 T03330183  RH  041%=      5-min Rain = 0
KTA1 141941Z 07013KT 34/18 A3013 RMK A01 T03360181  RH  040%=      5-min Rain = 0
KTA1 141942Z 05012KT 34/18 A3012 RMK A01 T03370181  RH  040%=      5-min Rain = 0
KTA1 141943Z 06009KT 34/18 A3012 RMK A01 T03350179  RH  040%=      5-min Rain = 0
KTA1 141944Z 09012KT 33/18 A3012 RMK A01 T03340179  RH  040%=      5-min Rain = 0
KTA1 141945Z 08008KT 34/18 A3012 RMK A01 T03360180  RH  040%=      5-min Rain = 0
KTA1 141946Z 06009KT 34/18 A3012 RMK A01 T03400181  RH  039%=      5-min Rain = 0
KTA1 141947Z 06008KT 34/18 A3012 RMK A01 T03410181  RH  039%=      5-min Rain = 0
KTA1 141948Z 07012KT 34/18 A3012 RMK A01 T03410182  RH  039%=      5-min Rain = 0
KTA1 141949Z 07009KT 34/18 A3012 RMK A01 T03410180  RH  039%=      5-min Rain = 0
KTA1 141950Z 07007KT 34/18 A3012 RMK A01 T03390180  RH  039%=      5-min Rain = 0
KTA1 141951Z 05011G17KT 34/18 A3012 RMK A01 T03360180  RH  040%=      5-min Rain = 0
KTA1 141952Z 05011KT 34/18 A3011 RMK A01 T03360178  RH  039%=      5-min Rain = 0
KTA1 141953Z 05014G19KT 34/18 A3011 RMK A01 T03350177  RH  039%=      5-min Rain = 0
KTA1 141954Z 04016KT 34/18 A3011 RMK A01 T03390178  RH  038%=      5-min Rain = 0
KTA1 141955Z 05017KT 34/18 A3012 RMK A01 T03420178  RH  038%=      5-min Rain = 0
KTA1 141956Z 05013KT 34/18 A3011 RMK A01 T03400176  RH  038%=      5-min Rain = 0
KTA1 141957Z 04011KT 34/17 A3011 RMK A01 T03380174  RH  038%=      5-min Rain = 0
KTA1 141958Z 04010KT 34/17 A3011 RMK A01 T03370173  RH  038%=      5-min Rain = 0
KTA1 141959Z 05011G17KT 34/17 A3011 RMK A01 T03360173  RH  038%=      5-min Rain = 0
KTA1 142000Z 04016KT 34/18 A3011 RMK A01 T03370175  RH  038%=      5-min Rain = 0
KTA1 142001Z 05011KT 34/17 A3011 RMK A01 T03390173  RH  037%=      5-min Rain = 0
KTA1 142002Z 05010KT 34/17 A3011 RMK A01 T03400174  RH  037%=      5-min Rain = 0
KTA1 142003Z 07012KT 34/18 A3011 RMK A01 T03410176  RH  038%=      5-min Rain = 0
KTA1 142004Z 07010KT 34/18 A3011 RMK A01 T03420178  RH  038%=      5-min Rain = 0
KTA1 142005Z 07010KT 34/18 A3011 RMK A01 T03430178  RH  038%=      5-min Rain = 0
KTA1 142006Z 07009KT 34/18 A3011 RMK A01 T03420178  RH  038%=      5-min Rain = 0
KTA1 142007Z 05006KT 34/18 A3011 RMK A01 T03420178  RH  038%=      5-min Rain = 0
KTA1 142008Z 04009G14KT 34/18 A301 RMK A01 T03430177  RH  037%=      5-min Rain = 0
KTA1 142009Z 07012KT 34/18 A301 RMK A01 T03440176  RH  037%=      5-min Rain = 0
KTA1 142010Z 06012KT 35/17 A3011 RMK A01 T03450174  RH  036%=      5-min Rain = 0
KTA1 142011Z 05008KT 34/17 A301 RMK A01 T03430174  RH  037%=      5-min Rain = 0
KTA1 142012Z 06011G16KT 35/18 A301 RMK A01 T03450176  RH  037%=      5-min Rain = 0
KTA1 142013Z 07011KT 35/18 A301 RMK A01 T03470176  RH  036%=      5-min Rain = 0
KTA1 142014Z 07010KT 35/18 A301 RMK A01 T03500177  RH  036%=      5-min Rain = 0
KTA1 142015Z 06015KT 35/18 A301 RMK A01 T03500177  RH  036%=      5-min Rain = 0
KTA1 142016Z 05011KT 35/18 A301 RMK A01 T03450175  RH  036%=      5-min Rain = 0
KTA1 142017Z 04012KT 34/18 A301 RMK A01 T03420175  RH  037%=      5-min Rain = 0
KTA1 142018Z 06016KT 34/18 A301 RMK A01 T03410176  RH  038%=      5-min Rain = 0
KTA1 142019Z 07012KT 34/17 A301 RMK A01 T03420173  RH  037%=      5-min Rain = 0
KTA1 142020Z 07012KT 34/17 A301 RMK A01 T03420174  RH  037%=      5-min Rain = 0
KTA1 142021Z 07011KT 34/18 A3009 RMK A01 T03430175  RH  037%=      5-min Rain = 0
KTA1 142022Z 06012KT 34/17 A3009 RMK A01 T03440174  RH  036%=      5-min Rain = 0
KTA1 142023Z 06010KT 35/17 A3009 RMK A01 T03450168  RH  035%=      5-min Rain = 0
KTA1 142024Z 05008KT 34/17 A3009 RMK A01 T03440168  RH  035%=      5-min Rain = 0
KTA1 142025Z 05009KT 34/17 A3009 RMK A01 T03440170  RH  036%=      5-min Rain = 0
KTA1 142026Z 06012KT 35/17 A3009 RMK A01 T03450171  RH  036%=      5-min Rain = 0
KTA1 142027Z 05014KT 35/17 A3009 RMK A01 T03470170  RH  035%=      5-min Rain = 0
KTA1 142028Z 05014KT 35/17 A3009 RMK A01 T03470167  RH  034%=      5-min Rain = 0
KTA1 142029Z 05007G12KT 35/17 A3009 RMK A01 T03480168  RH  034%=      5-min Rain = 0
KTA1 142030Z 06012G19KT 35/17 A3009 RMK A01 T03480169  RH  035%=      5-min Rain = 0
KTA1 142031Z 05016KT 35/17 A3009 RMK A01 T03470168  RH  035%=      5-min Rain = 0
KTA1 142032Z 05013KT 35/17 A3009 RMK A01 T03460168  RH  035%=      5-min Rain = 0
KTA1 142033Z 04013KT 34/17 A3009 RMK A01 T03440169  RH  035%=      5-min Rain = 0
KTA1 142034Z 06010G15KT 35/17 A3009 RMK A01 T03460167  RH  035%=      5-min Rain = 0
KTA1 142035Z 04008KT 35/17 A3009 RMK A01 T03470169  RH  035%=      5-min Rain = 0
KTA1 142036Z 05010G16KT 35/17 A3009 RMK A01 T03490169  RH  034%=      5-min Rain = 0
KTA1 142037Z 04014KT 35/17 A3008 RMK A01 T03470170  RH  035%=      5-min Rain = 0
KTA1 142038Z 04012KT 35/17 A3008 RMK A01 T03450169  RH  035%=      5-min Rain = 0
KTA1 142039Z 07006KT 34/17 A3008 RMK A01 T03410167  RH  036%=      5-min Rain = 0
KTA1 142040Z 06006KT 34/17 A3008 RMK A01 T03400168  RH  036%=      5-min Rain = 0
KTA1 142041Z 09007G12KT 34/17 A3008 RMK A01 T03420172  RH  036%=      5-min Rain = 0
KTA1 142042Z 07013KT 35/17 A3008 RMK A01 T03470169  RH  035%=      5-min Rain = 0
KTA1 142043Z 07013KT 35/17 A3008 RMK A01 T03520166  RH  033%=      5-min Rain = 0
KTA1 142044Z 08016KT 35/16 A3008 RMK A01 T03520163  RH  033%=      5-min Rain = 0
KTA1 142045Z 07010KT 35/16 A3008 RMK A01 T03500164  RH  033%=      5-min Rain = 0
KTA1 142046Z 06011G16KT 35/17 A3008 RMK A01 T03520167  RH  033%=      5-min Rain = 0
KTA1 142047Z 04008KT 35/16 A3008 RMK A01 T03530161  RH  032%=      5-min Rain = 0
KTA1 142048Z 06014G19KT 35/16 A3008 RMK A01 T03470164  RH  034%=      5-min Rain = 0
KTA1 142049Z 07010KT 35/17 A3008 RMK A01 T03490166  RH  034%=      5-min Rain = 0
KTA1 142050Z 06011KT 35/17 A3008 RMK A01 T03530169  RH  034%=      5-min Rain = 0
KTA1 142051Z 05010KT 35/17 A3008 RMK A01 T03540168  RH  033%=      5-min Rain = 0
KTA1 142052Z 07011KT 35/17 A3008 RMK A01 T03520169  RH  034%=      5-min Rain = 0
KTA1 142053Z 07012KT 35/17 A3008 RMK A01 T03530172  RH  034%=      5-min Rain = 0
KTA1 142054Z 07011KT 35/17 A3008 RMK A01 T03540170  RH  034%=      5-min Rain = 0
KTA1 142055Z 08007KT 35/17 A3008 RMK A01 T03500168  RH  034%=      5-min Rain = 0
KTA1 142056Z 09007KT 35/17 A3008 RMK A01 T03490168  RH  034%=      5-min Rain = 0
KTA1 142057Z 07010G15KT 35/17 A3008 RMK A01 T03480168  RH  034%=      5-min Rain = 0
KTA1 142058Z 07012KT 35/16 A3008 RMK A01 T03480164  RH  034%=      5-min Rain = 0
KTA1 142059Z 07009KT 35/16 A3008 RMK A01 T03490164  RH  033%=      5-min Rain = 0
KTA1 142100Z 07012KT 35/16 A3008 RMK A01 T03520162  RH  032%=      5-min Rain = 0
KTA1 142101Z 07011KT 35/16 A3008 RMK A01 T03540161  RH  032%=      5-min Rain = 0
KTA1 142102Z 08014KT 35/16 A3008 RMK A01 T03530163  RH  032%=      5-min Rain = 0
KTA1 142103Z 09011KT 35/16 A3008 RMK A01 T03500163  RH  033%=      5-min Rain = 0
KTA1 142104Z 07012KT 35/17 A3008 RMK A01 T03500165  RH  033%=      5-min Rain = 0
KTA1 142105Z 07014KT 35/17 A3008 RMK A01 T03520165  RH  033%=      5-min Rain = 0
KTA1 142106Z 07012KT 35/16 A3008 RMK A01 T03510164  RH  033%=      5-min Rain = 0
KTA1 142107Z 07014KT 35/16 A3008 RMK A01 T03510164  RH  033%=      5-min Rain = 0
KTA1 142108Z 06013KT 35/16 A3008 RMK A01 T03510164  RH  033%=      5-min Rain = 0
KTA1 142109Z 06012G17KT 35/16 A3008 RMK A01 T03510164  RH  033%=      5-min Rain = 0
KTA1 142110Z 06010KT 35/16 A3008 RMK A01 T03470162  RH  033%=      5-min Rain = 0
KTA1 142111Z 05008KT 35/16 A3008 RMK A01 T03450163  RH  034%=      5-min Rain = 0
KTA1 142112Z 05008KT 35/17 A3008 RMK A01 T03460165  RH  034%=      5-min Rain = 0
KTA1 142113Z 06011G16KT 35/17 A3008 RMK A01 T03500166  RH  034%=      5-min Rain = 0
KTA1 142114Z 06014KT 35/17 A3008 RMK A01 T03530165  RH  033%=      5-min Rain = 0
KTA1 142115Z 06011KT 36/16 A3008 RMK A01 T03550164  RH  032%=      5-min Rain = 0
KTA1 142116Z 05009KT 35/16 A3008 RMK A01 T03530164  RH  033%=      5-min Rain = 0
KTA1 142117Z 05012KT 35/16 A3008 RMK A01 T03510162  RH  032%=      5-min Rain = 0
KTA1 142118Z 04013KT 35/16 A3008 RMK A01 T03530161  RH  032%=      5-min Rain = 0
KTA1 142119Z 05014KT 35/16 A3008 RMK A01 T03540160  RH  032%=      5-min Rain = 0
KTA1 142120Z 04014G19KT 35/16 A3008 RMK A01 T03520159  RH  032%=      5-min Rain = 0
KTA1 142121Z 05012KT 35/16 A3008 RMK A01 T03510160  RH  032%=      5-min Rain = 0
KTA1 142122Z 05011KT 35/16 A3008 RMK A01 T03540160  RH  032%=      5-min Rain = 0
KTA1 142123Z 05007G13KT 35/16 A3008 RMK A01 T03530159  RH  031%=      5-min Rain = 0
KTA1 142124Z 05011KT 35/16 A3008 RMK A01 T03500159  RH  032%=      5-min Rain = 0
KTA1 142125Z 04010KT 35/16 A3008 RMK A01 T03490160  RH  032%=      5-min Rain = 0
KTA1 142126Z 09013KT 35/16 A3008 RMK A01 T03500162  RH  033%=      5-min Rain = 0
KTA1 142127Z 09015KT 35/16 A3008 RMK A01 T03490164  RH  033%=      5-min Rain = 0
KTA1 142128Z 10011KT 35/17 A3008 RMK A01 T03470165  RH  034%=      5-min Rain = 0
KTA1 142129Z 09010KT 35/17 A3008 RMK A01 T03480165  RH  034%=      5-min Rain = 0
KTA1 142130Z 08011KT 35/17 A3008 RMK A01 T03490166  RH  034%=      5-min Rain = 0
KTA1 142131Z 07011KT 35/16 A3008 RMK A01 T03500164  RH  033%=      5-min Rain = 0
KTA1 142132Z 05011KT 35/16 A3008 RMK A01 T03510162  RH  032%=      5-min Rain = 0
KTA1 142133Z 06008KT 35/16 A3008 RMK A01 T03520161  RH  032%=      5-min Rain = 0
KTA1 142134Z 06012KT 35/16 A3008 RMK A01 T03500161  RH  032%=      5-min Rain = 0
KTA1 142135Z 04013KT 35/16 A3008 RMK A01 T03510159  RH  032%=      5-min Rain = 0
KTA1 142136Z 07014KT 35/16 A3008 RMK A01 T03520158  RH  031%=      5-min Rain = 0
KTA1 142137Z 07013KT 35/16 A3008 RMK A01 T03540156  RH  031%=      5-min Rain = 0
KTA1 142138Z 07007KT 35/16 A3008 RMK A01 T03530156  RH  031%=      5-min Rain = 0
KTA1 142139Z 09008KT 35/16 A3007 RMK A01 T03530159  RH  031%=      5-min Rain = 0
KTA1 142140Z 08007KT 35/16 A3007 RMK A01 T03540158  RH  031%=      5-min Rain = 0
KTA1 142141Z 08008KT 35/16 A3007 RMK A01 T03540159  RH  031%=      5-min Rain = 0
KTA1 142142Z 10006KT 35/16 A3007 RMK A01 T03540157  RH  031%=      5-min Rain = 0
KTA1 142143Z 07006KT 35/16 A3007 RMK A01 T03530158  RH  031%=      5-min Rain = 0
KTA1 142144Z 09010KT 35/16 A3007 RMK A01 T03520159  RH  032%=      5-min Rain = 0
KTA1 142145Z 12008KT 35/16 A3007 RMK A01 T03520161  RH  032%=      5-min Rain = 0
KTA1 142146Z 10007KT 35/16 A3007 RMK A01 T03520161  RH  032%=      5-min Rain = 0
KTA1 142147Z 09008KT 35/16 A3007 RMK A01 T03520162  RH  032%=      5-min Rain = 0
KTA1 142148Z 07008KT 35/16 A3007 RMK A01 T03530161  RH  032%=      5-min Rain = 0
KTA1 142149Z 05009KT 36/16 A3007 RMK A01 T03550160  RH  032%=      5-min Rain = 0
KTA1 142150Z 04010KT 36/16 A3007 RMK A01 T03550160  RH  031%=      5-min Rain = 0
KTA1 142151Z 06008KT 35/16 A3007 RMK A01 T03540158  RH  031%=      5-min Rain = 0
KTA1 142152Z 08009KT 36/16 A3007 RMK A01 T03550157  RH  031%=      5-min Rain = 0
KTA1 142153Z 09009KT 36/16 A3007 RMK A01 T03550157  RH  031%=      5-min Rain = 0
KTA1 142154Z 09011G17KT 36/16 A3007 RMK A01 T03550158  RH  031%=      5-min Rain = 0
KTA1 142155Z 10010KT 36/16 A3007 RMK A01 T03550157  RH  031%=      5-min Rain = 0
KTA1 142156Z 08007KT 36/16 A3007 RMK A01 T03550157  RH  031%=      5-min Rain = 0
KTA1 142157Z 05007KT 36/16 A3007 RMK A01 T03550159  RH  031%=      5-min Rain = 0
KTA1 142158Z 06005KT 35/16 A3007 RMK A01 T03540156  RH  031%=      5-min Rain = 0
KTA1 142159Z 06006KT 35/16 A3007 RMK A01 T03520157  RH  031%=      5-min Rain = 0
KTA1 142200Z 08010G15KT 35/16 A3007 RMK A01 T03530160  RH  032%=      5-min Rain = 0
KTA1 142201Z 09014KT 36/16 A3007 RMK A01 T03560160  RH  031%=      5-min Rain = 0
KTA1 142202Z 08012KT 36/16 A3007 RMK A01 T03560158  RH  031%=      5-min Rain = 0
KTA1 142203Z 07009KT 35/16 A3007 RMK A01 T03530159  RH  032%=      5-min Rain = 0
KTA1 142204Z 08009KT 35/16 A3007 RMK A01 T03530159  RH  032%=      5-min Rain = 0
KTA1 142205Z 08008KT 36/16 A3007 RMK A01 T03550159  RH  031%=      5-min Rain = 0
KTA1 142206Z 09007KT 36/16 A3007 RMK A01 T03560159  RH  031%=      5-min Rain = 0
KTA1 142207Z 08008KT 35/16 A3007 RMK A01 T03530157  RH  031%=      5-min Rain = 0
KTA1 142208Z 10009KT 35/16 A3007 RMK A01 T03520158  RH  031%=      5-min Rain = 0
KTA1 142209Z 11006KT 35/16 A3007 RMK A01 T03530156  RH  031%=      5-min Rain = 0
KTA1 142210Z 10009KT 35/16 A3007 RMK A01 T03500157  RH  032%=      5-min Rain = 0
KTA1 142211Z 09009KT 35/16 A3007 RMK A01 T03500157  RH  032%=      5-min Rain = 0
KTA1 142212Z 09007KT 35/16 A3007 RMK A01 T03500157  RH  032%=      5-min Rain = 0
KTA1 142213Z 09008KT 35/16 A3007 RMK A01 T03510157  RH  032%=      5-min Rain = 0
KTA1 142214Z 08007KT 35/16 A3007 RMK A01 T03500157  RH  032%=      5-min Rain = 0
KTA1 142215Z 07009KT 35/16 A3007 RMK A01 T03510161  RH  032%=      5-min Rain = 0
KTA1 142216Z 07011G16KT 36/16 A3007 RMK A01 T03560160  RH  031%=      5-min Rain = 0
KTA1 142217Z 07011KT 36/16 A3007 RMK A01 T03600158  RH  030%=      5-min Rain = 0
KTA1 142218Z 08014KT 36/16 A3007 RMK A01 T03630158  RH  030%=      5-min Rain = 0
KTA1 142219Z 09012KT 36/16 A3007 RMK A01 T03610156  RH  030%=      5-min Rain = 0
KTA1 142220Z 06012KT 36/16 A3007 RMK A01 T03570156  RH  030%=      5-min Rain = 0
KTA1 142221Z 06013KT 36/15 A3007 RMK A01 T03560153  RH  030%=      5-min Rain = 0
KTA1 142222Z 07010KT 36/15 A3007 RMK A01 T03550152  RH  030%=      5-min Rain = 0
KTA1 142223Z 07009KT 35/15 A3007 RMK A01 T03540153  RH  030%=      5-min Rain = 0
KTA1 142224Z 07009KT 35/15 A3007 RMK A01 T03520153  RH  030%=      5-min Rain = 0
KTA1 142225Z 07009KT 35/15 A3007 RMK A01 T03510153  RH  031%=      5-min Rain = 0
KTA1 142226Z 10008KT 35/16 A3006 RMK A01 T03510155  RH  031%=      5-min Rain = 0
KTA1 142227Z 10009KT 35/16 A3006 RMK A01 T03530155  RH  031%=      5-min Rain = 0
KTA1 142228Z 09011KT 35/16 A3006 RMK A01 T03540155  RH  031%=      5-min Rain = 0
KTA1 142229Z 08009KT 35/15 A3006 RMK A01 T03540154  RH  030%=      5-min Rain = 0
KTA1 142230Z 09011KT 35/15 A3006 RMK A01 T03530154  RH  031%=      5-min Rain = 0
KTA1 142231Z 10010KT 35/16 A3006 RMK A01 T03540155  RH  031%=      5-min Rain = 0
KTA1 142232Z 11009KT 35/16 A3006 RMK A01 T03530156  RH  031%=      5-min Rain = 0
KTA1 142233Z 10007KT 35/16 A3006 RMK A01 T03500155  RH  031%=      5-min Rain = 0
KTA1 142234Z 06003KT 35/15 A3006 RMK A01 T03480154  RH  031%=      5-min Rain = 0
KTA1 142235Z 07002KT 35/15 A3006 RMK A01 T03470154  RH  032%=      5-min Rain = 0
KTA1 142236Z 09005KT 35/15 A3006 RMK A01 T03480154  RH  031%=      5-min Rain = 0
KTA1 142237Z 10008KT 35/16 A3006 RMK A01 T03490155  RH  031%=      5-min Rain = 0
KTA1 142238Z 08010KT 35/16 A3006 RMK A01 T03520157  RH  031%=      5-min Rain = 0
KTA1 142239Z 07010KT 35/16 A3006 RMK A01 T03530158  RH  031%=      5-min Rain = 0
KTA1 142240Z 08009KT 35/16 A3006 RMK A01 T03540158  RH  031%=      5-min Rain = 0
KTA1 142241Z 09008KT 36/16 A3006 RMK A01 T03550160  RH  031%=      5-min Rain = 0
KTA1 142242Z 08013KT 36/16 A3006 RMK A01 T03580161  RH  031%=      5-min Rain = 0
KTA1 142243Z 07014KT 36/16 A3006 RMK A01 T03590159  RH  030%=      5-min Rain = 0
KTA1 142244Z 08012KT 36/16 A3006 RMK A01 T03590157  RH  030%=      5-min Rain = 0
KTA1 142245Z 09011KT 36/16 A3006 RMK A01 T03560157  RH  031%=      5-min Rain = 0
KTA1 142246Z 09011KT 35/16 A3006 RMK A01 T03540156  RH  031%=      5-min Rain = 0
KTA1 142247Z 09010KT 35/16 A3006 RMK A01 T03520156  RH  031%=      5-min Rain = 0
KTA1 142248Z 09009KT 35/16 A3006 RMK A01 T03500156  RH  031%=      5-min Rain = 0
KTA1 142249Z 11005KT 35/16 A3006 RMK A01 T03500155  RH  031%=      5-min Rain = 0
KTA1 142250Z 10007KT 35/16 A3006 RMK A01 T03500156  RH  031%=      5-min Rain = 0
KTA1 142251Z 10008KT 35/16 A3006 RMK A01 T03500157  RH  032%=      5-min Rain = 0
KTA1 142252Z 10008KT 35/16 A3006 RMK A01 T03490156  RH  032%=      5-min Rain = 0
KTA1 142253Z 12006KT 35/16 A3006 RMK A01 T03490155  RH  032%=      5-min Rain = 0
KTA1 142254Z 10006KT 35/16 A3006 RMK A01 T03480156  RH  032%=      5-min Rain = 0
KTA1 142255Z 11006G11KT 35/16 A3006 RMK A01 T03500157  RH  032%=      5-min Rain = 0
KTA1 142256Z 10012KT 35/16 A3006 RMK A01 T03510158  RH  032%=      5-min Rain = 0
KTA1 142257Z 10013KT 35/16 A3006 RMK A01 T03510158  RH  032%=      5-min Rain = 0
KTA1 142258Z 09010KT 35/16 A3006 RMK A01 T03500159  RH  032%=      5-min Rain = 0
KTA1 142259Z 10009KT 35/16 A3006 RMK A01 T03510159  RH  032%=      5-min Rain = 0
KTA1 142300Z 08010KT 35/16 A3006 RMK A01 T03520158  RH  032%=      5-min Rain = 0
KTA1 142301Z 06011KT 35/16 A3006 RMK A01 T03510158  RH  032%=      5-min Rain = 0
KTA1 142302Z 06010KT 35/16 A3006 RMK A01 T03510159  RH  032%=      5-min Rain = 0
KTA1 142303Z 06010KT 35/16 A3006 RMK A01 T03500159  RH  032%=      5-min Rain = 0
KTA1 142304Z 06010KT 35/16 A3006 RMK A01 T03480158  RH  032%=      5-min Rain = 0
KTA1 142305Z 06009KT 35/16 A3006 RMK A01 T03480157  RH  032%=      5-min Rain = 0
KTA1 142306Z 09008KT 35/16 A3006 RMK A01 T03480158  RH  032%=      5-min Rain = 0
KTA1 142307Z 07007KT 35/16 A3006 RMK A01 T03490158  RH  032%=      5-min Rain = 0
KTA1 142308Z 10011KT 35/16 A3006 RMK A01 T03500158  RH  032%=      5-min Rain = 0
KTA1 142309Z 10012KT 35/16 A3006 RMK A01 T03510155  RH  031%=      5-min Rain = 0
KTA1 142310Z 09012KT 35/15 A3006 RMK A01 T03510153  RH  031%=      5-min Rain = 0
KTA1 142311Z 09011KT 35/15 A3005 RMK A01 T03510152  RH  031%=      5-min Rain = 0
KTA1 142312Z 08011KT 35/15 A3005 RMK A01 T03510152  RH  031%=      5-min Rain = 0
KTA1 142313Z 08012KT 35/15 A3005 RMK A01 T03520152  RH  030%=      5-min Rain = 0
KTA1 142314Z 09008KT 35/15 A3005 RMK A01 T03510151  RH  030%=      5-min Rain = 0
KTA1 142315Z 09008KT 35/15 A3005 RMK A01 T03500152  RH  030%=      5-min Rain = 0
KTA1 142316Z 10010KT 35/15 A3005 RMK A01 T03510153  RH  031%=      5-min Rain = 0
KTA1 142317Z 09009KT 35/16 A3005 RMK A01 T03500155  RH  031%=      5-min Rain = 0
KTA1 142318Z 08011KT 35/16 A3005 RMK A01 T03510155  RH  031%=      5-min Rain = 0
KTA1 142319Z 08010KT 35/15 A3005 RMK A01 T03530151  RH  030%=      5-min Rain = 0
KTA1 142320Z 08011KT 35/15 A3005 RMK A01 T03530152  RH  030%=      5-min Rain = 0
KTA1 142321Z 07009KT 35/15 A3005 RMK A01 T03520151  RH  030%=      5-min Rain = 0
KTA1 142322Z 08007KT 35/15 A3005 RMK A01 T03510151  RH  030%=      5-min Rain = 0
KTA1 142323Z 08007KT 35/15 A3005 RMK A01 T03500149  RH  030%=      5-min Rain = 0
KTA1 142324Z 09007KT 35/15 A3005 RMK A01 T03510147  RH  030%=      5-min Rain = 0
KTA1 142325Z 08009KT 35/15 A3005 RMK A01 T03520149  RH  030%=      5-min Rain = 0
KTA1 142326Z 06008KT 35/15 A3005 RMK A01 T03510149  RH  030%=      5-min Rain = 0
KTA1 142327Z 04007KT 35/15 A3005 RMK A01 T03510150  RH  030%=      5-min Rain = 0
KTA1 142328Z 06006KT 35/15 A3005 RMK A01 T03510150  RH  030%=      5-min Rain = 0
KTA1 142329Z 07008KT 35/15 A3005 RMK A01 T03510150  RH  030%=      5-min Rain = 0
KTA1 142330Z 07007KT 35/15 A3005 RMK A01 T03510149  RH  030%=      5-min Rain = 0
KTA1 142331Z 10008KT 35/15 A3005 RMK A01 T03500151  RH  030%=      5-min Rain = 0
KTA1 142332Z 10008KT 35/15 A3004 RMK A01 T03500153  RH  031%=      5-min Rain = 0
KTA1 142333Z 10005KT 35/15 A3004 RMK A01 T03480152  RH  031%=      5-min Rain = 0
KTA1 142334Z 10006KT 35/15 A3004 RMK A01 T03470153  RH  031%=      5-min Rain = 0
KTA1 142335Z 08007KT 35/15 A3004 RMK A01 T03470153  RH  031%=      5-min Rain = 0
KTA1 142336Z 07009KT 35/16 A3004 RMK A01 T03480155  RH  032%=      5-min Rain = 0
KTA1 142337Z 07011KT 35/16 A3004 RMK A01 T03500156  RH  031%=      5-min Rain = 0
KTA1 142338Z 06008KT 35/15 A3004 RMK A01 T03490154  RH  031%=      5-min Rain = 0
KTA1 142339Z 06009KT 35/16 A3004 RMK A01 T03480156  RH  032%=      5-min Rain = 0
KTA1 142340Z 05009KT 35/16 A3004 RMK A01 T03480156  RH  032%=      5-min Rain = 0
KTA1 142341Z 06007KT 35/16 A3004 RMK A01 T03480157  RH  032%=      5-min Rain = 0
KTA1 142342Z 06009KT 35/16 A3004 RMK A01 T03480156  RH  032%=      5-min Rain = 0
KTA1 142343Z 07008KT 35/16 A3004 RMK A01 T03470156  RH  032%=      5-min Rain = 0
KTA1 142344Z 08008KT 35/16 A3004 RMK A01 T03460157  RH  032%=      5-min Rain = 0
KTA1 142345Z 07008KT 35/16 A3004 RMK A01 T03470156  RH  032%=      5-min Rain = 0
KTA1 142346Z 07008KT 35/16 A3004 RMK A01 T03470157  RH  032%=      5-min Rain = 0
KTA1 142347Z 06008KT 35/16 A3004 RMK A01 T03490156  RH  032%=      5-min Rain = 0
KTA1 142348Z 07008KT 35/16 A3004 RMK A01 T03500156  RH  032%=      5-min Rain = 0
KTA1 142349Z 06010KT 35/16 A3004 RMK A01 T03510157  RH  032%=      5-min Rain = 0
KTA1 142350Z 08010KT 35/16 A3005 RMK A01 T03490156  RH  032%=      5-min Rain = 0
KTA1 142351Z 10012KT 35/16 A3005 RMK A01 T03480155  RH  032%=      5-min Rain = 0
KTA1 142352Z 09011KT 35/16 A3005 RMK A01 T03470155  RH  032%=      5-min Rain = 0
KTA1 142353Z 09011KT 35/16 A3005 RMK A01 T03470155  RH  032%=      5-min Rain = 0
KTA1 142354Z 09013KT 35/16 A3005 RMK A01 T03470156  RH  032%=      5-min Rain = 0
KTA1 142355Z 09012KT 35/15 A3005 RMK A01 T03460154  RH  032%=      5-min Rain = 0
KTA1 142356Z 10009KT 35/15 A3005 RMK A01 T03450154  RH  032%=      5-min Rain = 0
KTA1 142357Z 11010KT 35/15 A3005 RMK A01 T03450154  RH  032%=      5-min Rain = 0
KTA1 142358Z 10010KT 35/15 A3005 RMK A01 T03450154  RH  032%=      5-min Rain = 0
KTA1 142359Z 11010KT 35/15 A3005 RMK A01 T03450153  RH  032%=      5-min Rain = 0
KTA1 150000Z 11009KT 34/15 A3004 RMK A01 T03430151  RH  032%=      5-min Rain = 0
KTA1 150001Z 10010KT 34/15 A3004 RMK A01 T03420153  RH  032%=      5-min Rain = 0
KTA1 150002Z 11008KT 34/15 A3004 RMK A01 T03420151  RH  032%=      5-min Rain = 0
KTA1 150003Z 09007KT 34/15 A3004 RMK A01 T03420151  RH  032%=      5-min Rain = 0
KTA1 150004Z 09006KT 34/15 A3004 RMK A01 T03420151  RH  032%=      5-min Rain = 0
KTA1 150005Z 10006KT 34/15 A3004 RMK A01 T03420152  RH  032%=      5-min Rain = 0
KTA1 150006Z 10005KT 34/15 A3004 RMK A01 T03430153  RH  032%=      5-min Rain = 0
KTA1 150007Z 09005KT 34/15 A3004 RMK A01 T03430154  RH  032%=      5-min Rain = 0
KTA1 150008Z 09006KT 34/15 A3004 RMK A01 T03440153  RH  032%=      5-min Rain = 0
KTA1 150009Z 10007KT 34/15 A3004 RMK A01 T03440153  RH  032%=      5-min Rain = 0
KTA1 150010Z 11010KT 34/15 A3004 RMK A01 T03440152  RH  032%=      5-min Rain = 0
KTA1 150011Z 11011KT 34/15 A3004 RMK A01 T03440151  RH  032%=      5-min Rain = 0
KTA1 150012Z 11009KT 34/15 A3004 RMK A01 T03430149  RH  031%=      5-min Rain = 0
KTA1 150013Z 10007KT 34/15 A3004 RMK A01 T03430149  RH  031%=      5-min Rain = 0
KTA1 150014Z 10009KT 34/15 A3004 RMK A01 T03430149  RH  031%=      5-min Rain = 0
KTA1 150015Z 08009KT 34/15 A3004 RMK A01 T03430150  RH  032%=      5-min Rain = 0
KTA1 150016Z 09008KT 34/15 A3004 RMK A01 T03420149  RH  031%=      5-min Rain = 0
KTA1 150017Z 08009KT 34/15 A3004 RMK A01 T03420149  RH  031%=      5-min Rain = 0
KTA1 150018Z 08008KT 34/15 A3004 RMK A01 T03420149  RH  031%=      5-min Rain = 0
KTA1 150019Z 07007KT 34/15 A3004 RMK A01 T03420149  RH  032%=      5-min Rain = 0
KTA1 150020Z 07007KT 34/15 A3004 RMK A01 T03420150  RH  032%=      5-min Rain = 0
KTA1 150021Z 08006KT 34/15 A3004 RMK A01 T03420149  RH  031%=      5-min Rain = 0
KTA1 150022Z 08005KT 34/15 A3004 RMK A01 T03430150  RH  032%=      5-min Rain = 0
KTA1 150023Z 07008KT 34/15 A3004 RMK A01 T03430152  RH  032%=      5-min Rain = 0
KTA1 150024Z 08007KT 34/15 A3004 RMK A01 T03430151  RH  032%=      5-min Rain = 0
KTA1 150025Z 08006KT 34/15 A3004 RMK A01 T03430152  RH  032%=      5-min Rain = 0
KTA1 150026Z 07006KT 34/15 A3004 RMK A01 T03430153  RH  032%=      5-min Rain = 0
KTA1 150027Z 08006KT 34/15 A3004 RMK A01 T03430154  RH  032%=      5-min Rain = 0
KTA1 150028Z 09007KT 34/15 A3004 RMK A01 T03430153  RH  032%=      5-min Rain = 0
KTA1 150029Z 09007KT 34/15 A3004 RMK A01 T03430152  RH  032%=      5-min Rain = 0
KTA1 150030Z 09006KT 34/15 A3004 RMK A01 T03430151  RH  032%=      5-min Rain = 0
KTA1 150031Z 09006KT 34/15 A3005 RMK A01 T03430151  RH  032%=      5-min Rain = 0
KTA1 150032Z 08008KT 34/15 A3005 RMK A01 T03430150  RH  032%=      5-min Rain = 0
KTA1 150033Z 09008KT 34/15 A3005 RMK A01 T03430150  RH  032%=      5-min Rain = 0
KTA1 150034Z 08007KT 34/15 A3005 RMK A01 T03430150  RH  032%=      5-min Rain = 0
KTA1 150035Z 08008KT 34/15 A3005 RMK A01 T03420151  RH  032%=      5-min Rain = 0
KTA1 150036Z 08007KT 34/15 A3005 RMK A01 T03420152  RH  032%=      5-min Rain = 0
KTA1 150037Z 09009KT 34/15 A3005 RMK A01 T03420152  RH  032%=      5-min Rain = 0
KTA1 150038Z 09009KT 34/15 A3005 RMK A01 T03420151  RH  032%=      5-min Rain = 0
KTA1 150039Z 08008KT 34/15 A3005 RMK A01 T03410151  RH  032%=      5-min Rain = 0
KTA1 150040Z 08007KT 34/15 A3005 RMK A01 T03410152  RH  032%=      5-min Rain = 0
KTA1 150041Z 09009KT 34/15 A3005 RMK A01 T03400150  RH  032%=      5-min Rain = 0
KTA1 150042Z 09008KT 34/15 A3005 RMK A01 T03400150  RH  032%=      5-min Rain = 0
KTA1 150043Z 08007KT 34/15 A3005 RMK A01 T03400152  RH  032%=      5-min Rain = 0
KTA1 150044Z 06008KT 34/15 A3005 RMK A01 T03400153  RH  033%=      5-min Rain = 0
KTA1 150045Z 07007KT 34/15 A3005 RMK A01 T03400152  RH  032%=      5-min Rain = 0
KTA1 150046Z 08008KT 34/15 A3005 RMK A01 T03400151  RH  032%=      5-min Rain = 0
KTA1 150047Z 08007KT 34/15 A3005 RMK A01 T03390149  RH  032%=      5-min Rain = 0
KTA1 150048Z 08005KT 34/15 A3005 RMK A01 T03400150  RH  032%=      5-min Rain = 0
KTA1 150049Z 07006KT 34/15 A3005 RMK A01 T03400151  RH  032%=      5-min Rain = 0
KTA1 150050Z 07007KT 34/15 A3005 RMK A01 T03400152  RH  032%=      5-min Rain = 0
KTA1 150051Z 07006KT 34/15 A3005 RMK A01 T03390151  RH  032%=      5-min Rain = 0
KTA1 150052Z 07005KT 34/15 A3005 RMK A01 T03390151  RH  033%=      5-min Rain = 0
KTA1 150053Z 07007KT 34/15 A3005 RMK A01 T03390151  RH  032%=      5-min Rain = 0
KTA1 150054Z 07007KT 34/15 A3005 RMK A01 T03380151  RH  033%=      5-min Rain = 0
KTA1 150055Z 07009KT 34/15 A3005 RMK A01 T03380150  RH  033%=      5-min Rain = 0
KTA1 150056Z 07009KT 34/15 A3005 RMK A01 T03370150  RH  033%=      5-min Rain = 0
KTA1 150057Z 08006KT 34/15 A3005 RMK A01 T03370150  RH  033%=      5-min Rain = 0
KTA1 150058Z 08006KT 34/15 A3005 RMK A01 T03370151  RH  033%=      5-min Rain = 0
KTA1 150059Z 08008KT 34/15 A3005 RMK A01 T03370152  RH  033%=      5-min Rain = 0
KTA1 150100Z 09009KT 34/15 A3005 RMK A01 T03360151  RH  033%=      5-min Rain = 0
KTA1 150101Z 10008KT 34/15 A3005 RMK A01 T03360151  RH  033%=      5-min Rain = 0
KTA1 150102Z 08009KT 34/15 A3005 RMK A01 T03350151  RH  033%=      5-min Rain = 0
KTA1 150103Z 08008KT 34/15 A3005 RMK A01 T03350151  RH  033%=      5-min Rain = 0
KTA1 150104Z 08007KT 34/15 A3005 RMK A01 T03350151  RH  033%=      5-min Rain = 0
KTA1 150105Z 08008KT 34/15 A3006 RMK A01 T03350150  RH  033%=      5-min Rain = 0
KTA1 150106Z 08009KT 33/15 A3006 RMK A01 T03340149  RH  033%=      5-min Rain = 0
KTA1 150107Z 07008KT 33/15 A3006 RMK A01 T03340147  RH  033%=      5-min Rain = 0
KTA1 150108Z 07008KT 33/15 A3006 RMK A01 T03330146  RH  032%=      5-min Rain = 0
KTA1 150109Z 07008KT 33/15 A3006 RMK A01 T03330147  RH  032%=      5-min Rain = 0
KTA1 150110Z 07008KT 33/15 A3006 RMK A01 T03330146  RH  032%=      5-min Rain = 0
KTA1 150111Z 08008KT 33/15 A3006 RMK A01 T03330146  RH  033%=      5-min Rain = 0
KTA1 150112Z 07008KT 33/15 A3006 RMK A01 T03320147  RH  033%=      5-min Rain = 0
KTA1 150113Z 07007KT 33/15 A3006 RMK A01 T03320147  RH  033%=      5-min Rain = 0
KTA1 150114Z 07007KT 33/15 A3006 RMK A01 T03320148  RH  033%=      5-min Rain = 0
KTA1 150115Z 07008KT 33/15 A3006 RMK A01 T03310147  RH  033%=      5-min Rain = 0
KTA1 150116Z 07007KT 33/15 A3006 RMK A01 T03310148  RH  033%=      5-min Rain = 0
KTA1 150117Z 08006KT 33/15 A3006 RMK A01 T03300148  RH  033%=      5-min Rain = 0
KTA1 150118Z 08006KT 33/15 A3006 RMK A01 T03300148  RH  034%=      5-min Rain = 0
KTA1 150119Z 07007KT 33/15 A3006 RMK A01 T03290149  RH  034%=      5-min Rain = 0
KTA1 150120Z 07007KT 33/15 A3006 RMK A01 T03290149  RH  034%=      5-min Rain = 0
KTA1 150121Z 07007KT 33/15 A3006 RMK A01 T03280150  RH  034%=      5-min Rain = 0
KTA1 150122Z 07006KT 33/15 A3006 RMK A01 T03280149  RH  034%=      5-min Rain = 0
KTA1 150123Z 07008KT 33/15 A3006 RMK A01 T03280150  RH  034%=      5-min Rain = 0
KTA1 150124Z 08008KT 33/15 A3006 RMK A01 T03270150  RH  034%=      5-min Rain = 0
KTA1 150125Z 09008KT 33/15 A3006 RMK A01 T03280151  RH  035%=      5-min Rain = 0
KTA1 150126Z 09007KT 33/15 A3006 RMK A01 T03270152  RH  035%=      5-min Rain = 0
KTA1 150127Z 09006KT 33/15 A3006 RMK A01 T03270154  RH  036%=      5-min Rain = 0
KTA1 150128Z 09008KT 33/16 A3006 RMK A01 T03260156  RH  036%=      5-min Rain = 0
KTA1 150129Z 09006KT 33/16 A3006 RMK A01 T03250157  RH  036%=      5-min Rain = 0
KTA1 150130Z 09006KT 33/16 A3006 RMK A01 T03250157  RH  036%=      5-min Rain = 0
KTA1 150131Z 08005KT 32/16 A3006 RMK A01 T03240157  RH  037%=      5-min Rain = 0
KTA1 150132Z 09006KT 32/16 A3006 RMK A01 T03230157  RH  037%=      5-min Rain = 0
KTA1 150133Z 08005KT 32/16 A3006 RMK A01 T03220158  RH  037%=      5-min Rain = 0
KTA1 150134Z 08006KT 32/16 A3006 RMK A01 T03210157  RH  037%=      5-min Rain = 0
KTA1 150135Z 08005KT 32/16 A3007 RMK A01 T03210158  RH  038%=      5-min Rain = 0
KTA1 150136Z 08005KT 32/16 A3007 RMK A01 T03200158  RH  038%=      5-min Rain = 0
KTA1 150137Z 08006KT 32/16 A3007 RMK A01 T03190158  RH  038%=      5-min Rain = 0
KTA1 150138Z 07006KT 32/16 A3007 RMK A01 T03190159  RH  038%=      5-min Rain = 0
KTA1 150139Z 07005KT 32/16 A3007 RMK A01 T03190159  RH  038%=      5-min Rain = 0
KTA1 150140Z 06005KT 32/16 A3007 RMK A01 T03180159  RH  038%=      5-min Rain = 0
KTA1 150141Z 05005KT 32/16 A3007 RMK A01 T03180159  RH  038%=      5-min Rain = 0
KTA1 150142Z 06005KT 32/16 A3007 RMK A01 T03170159  RH  038%=      5-min Rain = 0
KTA1 150143Z 06006KT 32/16 A3007 RMK A01 T03160159  RH  039%=      5-min Rain = 0
KTA1 150144Z 06006KT 32/16 A3007 RMK A01 T03160159  RH  039%=      5-min Rain = 0
KTA1 150145Z 06006KT 32/16 A3007 RMK A01 T03160160  RH  039%=      5-min Rain = 0
KTA1 150146Z 06006KT 32/16 A3007 RMK A01 T03150160  RH  039%=      5-min Rain = 0
KTA1 150147Z 06006KT 32/16 A3007 RMK A01 T03150160  RH  039%=      5-min Rain = 0
KTA1 150148Z 06006KT 32/16 A3007 RMK A01 T03150160  RH  039%=      5-min Rain = 0
KTA1 150149Z 07006KT 32/16 A3007 RMK A01 T03150160  RH  039%=      5-min Rain = 0
KTA1 150150Z 07006KT 32/16 A3007 RMK A01 T03150161  RH  039%=      5-min Rain = 0
KTA1 150151Z 07006KT 32/16 A3007 RMK A01 T03150161  RH  039%=      5-min Rain = 0
KTA1 150152Z 07005KT 32/16 A3007 RMK A01 T03150161  RH  040%=      5-min Rain = 0
KTA1 150153Z 07006KT 31/16 A3007 RMK A01 T03140160  RH  040%=      5-min Rain = 0
KTA1 150154Z 07006KT 31/16 A3007 RMK A01 T03140161  RH  040%=      5-min Rain = 0
KTA1 150155Z 07006KT 31/16 A3007 RMK A01 T03140161  RH  040%=      5-min Rain = 0
KTA1 150156Z 07006KT 31/16 A3007 RMK A01 T03130161  RH  040%=      5-min Rain = 0
KTA1 150157Z 07006KT 31/16 A3007 RMK A01 T03130161  RH  040%=      5-min Rain = 0
KTA1 150158Z 07006KT 31/16 A3007 RMK A01 T03120161  RH  040%=      5-min Rain = 0
KTA1 150159Z 07006KT 31/16 A3007 RMK A01 T03120161  RH  040%=      5-min Rain = 0
KTA1 150200Z 07006KT 31/16 A3008 RMK A01 T03110161  RH  040%=      5-min Rain = 0
KTA1 150201Z 07006KT 31/16 A3008 RMK A01 T03110161  RH  041%=      5-min Rain = 0
KTA1 150202Z 07006KT 31/16 A3008 RMK A01 T03100161  RH  041%=      5-min Rain = 0
KTA1 150203Z 07006KT 31/16 A3008 RMK A01 T03100161  RH  041%=      5-min Rain = 0
KTA1 150204Z 07006KT 31/16 A3008 RMK A01 T03100161  RH  041%=      5-min Rain = 0
KTA1 150205Z 07006KT 31/16 A3008 RMK A01 T03100161  RH  041%=      5-min Rain = 0
KTA1 150206Z 07005KT 31/16 A3008 RMK A01 T03090161  RH  041%=      5-min Rain = 0
KTA1 150207Z 07005KT 31/16 A3008 RMK A01 T03090161  RH  041%=      5-min Rain = 0
KTA1 150208Z 07006KT 31/16 A3008 RMK A01 T03090161  RH  041%=      5-min Rain = 0
KTA1 150209Z 07006KT 31/16 A3008 RMK A01 T03080161  RH  041%=      5-min Rain = 0
KTA1 150210Z 07006KT 31/16 A3008 RMK A01 T03080161  RH  041%=      5-min Rain = 0
KTA1 150211Z 07006KT 31/16 A3009 RMK A01 T03070161  RH  041%=      5-min Rain = 0
KTA1 150212Z 07006KT 31/16 A3009 RMK A01 T03070161  RH  042%=      5-min Rain = 0
KTA1 150213Z 07006KT 31/16 A3009 RMK A01 T03060162  RH  042%=      5-min Rain = 0
KTA1 150214Z 07006KT 31/16 A3009 RMK A01 T03060162  RH  042%=      5-min Rain = 0
KTA1 150215Z 07006KT 31/16 A3009 RMK A01 T03060162  RH  042%=      5-min Rain = 0
KTA1 150216Z 07006KT 31/16 A3009 RMK A01 T03050162  RH  042%=      5-min Rain = 0
KTA1 150217Z 07006KT 31/16 A3009 RMK A01 T03050162  RH  042%=      5-min Rain = 0
KTA1 150218Z 07005KT 31/16 A3009 RMK A01 T03050163  RH  042%=      5-min Rain = 0
KTA1 150219Z 07005KT 30/16 A3009 RMK A01 T03040163  RH  042%=      5-min Rain = 0
KTA1 150220Z 08005KT 30/16 A3009 RMK A01 T03040163  RH  043%=      5-min Rain = 0
KTA1 150221Z 08005KT 30/16 A3009 RMK A01 T03040163  RH  043%=      5-min Rain = 0
KTA1 150222Z 09005KT 30/16 A3009 RMK A01 T03040164  RH  043%=      5-min Rain = 0
KTA1 150223Z 10005KT 30/16 A3009 RMK A01 T03030164  RH  043%=      5-min Rain = 0
KTA1 150224Z 11005KT 30/16 A3009 RMK A01 T03030164  RH  043%=      5-min Rain = 0
KTA1 150225Z 13005KT 30/17 A301 RMK A01 T03020165  RH  044%=      5-min Rain = 0
KTA1 150226Z 15007KT 30/17 A301 RMK A01 T03010165  RH  044%=      5-min Rain = 0
KTA1 150227Z 16006KT 30/17 A301 RMK A01 T02990165  RH  045%=      5-min Rain = 0
KTA1 150228Z 16006KT 30/17 A301 RMK A01 T02980166  RH  045%=      5-min Rain = 0
KTA1 150229Z 17005KT 30/17 A301 RMK A01 T02970166  RH  045%=      5-min Rain = 0
KTA1 150230Z 16005KT 30/17 A301 RMK A01 T02970167  RH  046%=      5-min Rain = 0
KTA1 150231Z 17006KT 30/17 A301 RMK A01 T02960168  RH  046%=      5-min Rain = 0
KTA1 150232Z 17005KT 30/17 A301 RMK A01 T02970169  RH  046%=      5-min Rain = 0
KTA1 150233Z 17004KT 30/17 A301 RMK A01 T02970169  RH  046%=      5-min Rain = 0
KTA1 150234Z 17004KT 30/17 A3011 RMK A01 T02970169  RH  046%=      5-min Rain = 0
KTA1 150235Z 18005KT 30/17 A3011 RMK A01 T02970171  RH  047%=      5-min Rain = 0
KTA1 150236Z 18007KT 30/17 A3011 RMK A01 T02980173  RH  047%=      5-min Rain = 0
KTA1 150237Z 19005KT 30/18 A3011 RMK A01 T02970175  RH  048%=      5-min Rain = 0
KTA1 150238Z 18004KT 30/18 A3011 RMK A01 T02990177  RH  048%=      5-min Rain = 0
KTA1 150239Z 18005KT 30/18 A3011 RMK A01 T02990177  RH  048%=      5-min Rain = 0
KTA1 150240Z 18005KT 30/18 A3011 RMK A01 T02990178  RH  048%=      5-min Rain = 0
KTA1 150241Z 18004KT 30/18 A3011 RMK A01 T02990179  RH  049%=      5-min Rain = 0
KTA1 150242Z 17003KT 30/18 A3011 RMK A01 T02990179  RH  049%=      5-min Rain = 0
KTA1 150243Z 13001KT 30/18 A3011 RMK A01 T02990179  RH  049%=      5-min Rain = 0
KTA1 150244Z 13000KT 30/18 A3011 RMK A01 T02980179  RH  049%=      5-min Rain = 0
KTA1 150245Z 15002KT 30/18 A3011 RMK A01 T02980179  RH  049%=      5-min Rain = 0
KTA1 150246Z 15000KT 30/18 A3011 RMK A01 T02970180  RH  049%=      5-min Rain = 0
KTA1 150247Z 18002KT 30/18 A3011 RMK A01 T02970181  RH  050%=      5-min Rain = 0
KTA1 150248Z 19004KT 30/18 A3011 RMK A01 T02970181  RH  050%=      5-min Rain = 0
KTA1 150249Z 19004KT 30/18 A3011 RMK A01 T02960182  RH  050%=      5-min Rain = 0
KTA1 150250Z 19005KT 30/18 A3011 RMK A01 T02960182  RH  050%=      5-min Rain = 0
KTA1 150251Z 19005KT 30/18 A3012 RMK A01 T02950182  RH  051%=      5-min Rain = 0
KTA1 150252Z 20005KT 30/18 A3012 RMK A01 T02950182  RH  051%=      5-min Rain = 0
KTA1 150253Z 21005KT 29/18 A3012 RMK A01 T02940182  RH  051%=      5-min Rain = 0
KTA1 150254Z 21006KT 29/18 A3012 RMK A01 T02940182  RH  051%=      5-min Rain = 0
KTA1 150255Z 21005KT 29/18 A3012 RMK A01 T02940182  RH  051%=      5-min Rain = 0
KTA1 150256Z 21006KT 29/18 A3012 RMK A01 T02940182  RH  051%=      5-min Rain = 0
KTA1 150257Z 21005KT 29/18 A3012 RMK A01 T02940183  RH  051%=      5-min Rain = 0
KTA1 150258Z 20005KT 29/18 A3012 RMK A01 T02940183  RH  051%=      5-min Rain = 0
KTA1 150259Z 21005KT 29/18 A3012 RMK A01 T02940183  RH  051%=      5-min Rain = 0
KTA1 150300Z 21003KT 29/18 A3012 RMK A01 T02940183  RH  051%=      5-min Rain = 0
KTA1 150301Z 20005KT 29/18 A3012 RMK A01 T02940183  RH  051%=      5-min Rain = 0
KTA1 150302Z 19004KT 29/18 A3012 RMK A01 T02940183  RH  051%=      5-min Rain = 0
KTA1 150303Z 20003KT 29/18 A3012 RMK A01 T02930182  RH  051%=      5-min Rain = 0
KTA1 150304Z 19002KT 29/18 A3012 RMK A01 T02930183  RH  052%=      5-min Rain = 0
KTA1 150305Z 19003KT 29/18 A3012 RMK A01 T02920182  RH  052%=      5-min Rain = 0
KTA1 150306Z 18003KT 29/18 A3012 RMK A01 T02910182  RH  052%=      5-min Rain = 0
KTA1 150307Z 17003KT 29/18 A3012 RMK A01 T02910182  RH  052%=      5-min Rain = 0
KTA1 150308Z 18004KT 29/18 A3012 RMK A01 T02900182  RH  052%=      5-min Rain = 0
KTA1 150309Z 17004KT 29/18 A3012 RMK A01 T02890182  RH  052%=      5-min Rain = 0
KTA1 150310Z 18005KT 29/18 A3012 RMK A01 T02890182  RH  052%=      5-min Rain = 0
KTA1 150311Z 19005KT 29/18 A3012 RMK A01 T02890182  RH  052%=      5-min Rain = 0
KTA1 150312Z 18005KT 29/18 A3012 RMK A01 T02890182  RH  052%=      5-min Rain = 0
KTA1 150313Z 19005KT 29/18 A3012 RMK A01 T02900182  RH  052%=      5-min Rain = 0
KTA1 150314Z 19005KT 29/18 A3012 RMK A01 T02900182  RH  052%=      5-min Rain = 0
KTA1 150315Z 20005KT 29/18 A3012 RMK A01 T02910183  RH  052%=      5-min Rain = 0
KTA1 150316Z 20005KT 29/18 A3012 RMK A01 T02910183  RH  052%=      5-min Rain = 0
KTA1 150317Z 20005KT 29/18 A3012 RMK A01 T02910183  RH  052%=      5-min Rain = 0
KTA1 150318Z 20004KT 29/18 A3012 RMK A01 T02910183  RH  052%=      5-min Rain = 0
KTA1 150319Z 20005KT 29/18 A3012 RMK A01 T02910183  RH  052%=      5-min Rain = 0
KTA1 150320Z 20004KT 29/18 A3012 RMK A01 T02910183  RH  052%=      5-min Rain = 0
KTA1 150321Z 21004KT 29/18 A3012 RMK A01 T02900183  RH  052%=      5-min Rain = 0
KTA1 150322Z 21005KT 29/18 A3012 RMK A01 T02900183  RH  052%=      5-min Rain = 0
KTA1 150323Z 21005KT 29/18 A3012 RMK A01 T02900182  RH  052%=      5-min Rain = 0
KTA1 150324Z 21005KT 29/18 A3012 RMK A01 T02900183  RH  052%=      5-min Rain = 0
KTA1 150325Z 21005KT 29/18 A3012 RMK A01 T02890182  RH  053%=      5-min Rain = 0
KTA1 150326Z 21005KT 29/18 A3012 RMK A01 T02880182  RH  053%=      5-min Rain = 0
KTA1 150327Z 21004KT 29/18 A3013 RMK A01 T02880182  RH  053%=      5-min Rain = 0
KTA1 150328Z 21004KT 29/18 A3013 RMK A01 T02880182  RH  053%=      5-min Rain = 0
KTA1 150329Z 21004KT 29/18 A3013 RMK A01 T02880183  RH  053%=      5-min Rain = 0
KTA1 150330Z 20003KT 29/18 A3013 RMK A01 T02880182  RH  053%=      5-min Rain = 0
KTA1 150331Z 21003KT 29/18 A3013 RMK A01 T02880182  RH  053%=      5-min Rain = 0
KTA1 150332Z 21003KT 29/18 A3013 RMK A01 T02880182  RH  053%=      5-min Rain = 0
KTA1 150333Z 20003KT 29/18 A3013 RMK A01 T02870182  RH  053%=      5-min Rain = 0
KTA1 150334Z 21002KT 29/18 A3013 RMK A01 T02860181  RH  053%=      5-min Rain = 0
KTA1 150335Z 21003KT 29/18 A3013 RMK A01 T02860182  RH  053%=      5-min Rain = 0
KTA1 150336Z 22003KT 29/18 A3013 RMK A01 T02850181  RH  053%=      5-min Rain = 0
KTA1 150337Z 22003KT 29/18 A3013 RMK A01 T02850181  RH  053%=      5-min Rain = 0
KTA1 150338Z 21003KT 29/18 A3013 RMK A01 T02850181  RH  053%=      5-min Rain = 0
KTA1 150339Z 21003KT 29/18 A3013 RMK A01 T02850182  RH  054%=      5-min Rain = 0
KTA1 150340Z 21003KT 29/18 A3013 RMK A01 T02850181  RH  053%=      5-min Rain = 0
KTA1 150341Z 21003KT 28/18 A3013 RMK A01 T02840181  RH  054%=      5-min Rain = 0
KTA1 150342Z 21003KT 28/18 A3013 RMK A01 T02840181  RH  054%=      5-min Rain = 0
KTA1 150343Z 21003KT 28/18 A3013 RMK A01 T02830181  RH  054%=      5-min Rain = 0
KTA1 150344Z 22003KT 28/18 A3013 RMK A01 T02830181  RH  054%=      5-min Rain = 0
KTA1 150345Z 22003KT 28/18 A3013 RMK A01 T02830181  RH  054%=      5-min Rain = 0
KTA1 150346Z 23003KT 28/18 A3013 RMK A01 T02830181  RH  054%=      5-min Rain = 0
KTA1 150347Z 23002KT 28/18 A3013 RMK A01 T02830181  RH  054%=      5-min Rain = 0
KTA1 150348Z 23002KT 28/18 A3013 RMK A01 T02840181  RH  054%=      5-min Rain = 0
KTA1 150349Z 23002KT 28/18 A3013 RMK A01 T02840181  RH  054%=      5-min Rain = 0
KTA1 150350Z 22002KT 28/18 A3013 RMK A01 T02840182  RH  054%=      5-min Rain = 0
KTA1 150351Z 22002KT 28/18 A3013 RMK A01 T02830181  RH  054%=      5-min Rain = 0
KTA1 150352Z 22002KT 28/18 A3013 RMK A01 T02830181  RH  054%=      5-min Rain = 0
KTA1 150353Z 21002KT 28/18 A3013 RMK A01 T02830181  RH  054%=      5-min Rain = 0
KTA1 150354Z 22002KT 28/18 A3013 RMK A01 T02820181  RH  054%=      5-min Rain = 0
KTA1 150355Z 22003KT 28/18 A3013 RMK A01 T02810181  RH  054%=      5-min Rain = 0
KTA1 150356Z 23004KT 28/18 A3013 RMK A01 T02810181  RH  054%=      5-min Rain = 0
KTA1 150357Z 23004KT 28/18 A3013 RMK A01 T02800180  RH  054%=      5-min Rain = 0
KTA1 150358Z 23004KT 28/18 A3013 RMK A01 T02800180  RH  054%=      5-min Rain = 0
KTA1 150359Z 23003KT 28/18 A3013 RMK A01 T02790179  RH  054%=      5-min Rain = 0
KTA1 150400Z 23003KT 28/18 A3013 RMK A01 T02790179  RH  055%=      5-min Rain = 0
KTA1 150401Z 23003KT 28/18 A3013 RMK A01 T02780178  RH  055%=      5-min Rain = 0
KTA1 150402Z 23003KT 28/18 A3013 RMK A01 T02780179  RH  055%=      5-min Rain = 0
KTA1 150403Z 23002KT 28/18 A3013 RMK A01 T02780178  RH  055%=      5-min Rain = 0
KTA1 150404Z 23002KT 28/18 A3013 RMK A01 T02780178  RH  055%=      5-min Rain = 0
KTA1 150405Z 22002KT 28/18 A3013 RMK A01 T02780179  RH  055%=      5-min Rain = 0
KTA1 150406Z 22002KT 28/18 A3013 RMK A01 T02770178  RH  055%=      5-min Rain = 0
KTA1 150407Z 20002KT 28/18 A3013 RMK A01 T02770178  RH  055%=      5-min Rain = 0
KTA1 150408Z 19003KT 28/18 A3013 RMK A01 T02760178  RH  055%=      5-min Rain = 0
KTA1 150409Z 18003KT 28/18 A3013 RMK A01 T02750178  RH  056%=      5-min Rain = 0
KTA1 150410Z 18003KT 28/18 A3013 RMK A01 T02750178  RH  056%=      5-min Rain = 0
KTA1 150411Z 18003KT 27/18 A3013 RMK A01 T02740179  RH  056%=      5-min Rain = 0
KTA1 150412Z 17004KT 27/18 A3013 RMK A01 T02730179  RH  057%=      5-min Rain = 0
KTA1 150413Z 17004KT 27/18 A3013 RMK A01 T02720179  RH  057%=      5-min Rain = 0
KTA1 150414Z 17003KT 27/18 A3013 RMK A01 T02710179  RH  057%=      5-min Rain = 0
KTA1 150415Z 16003KT 27/18 A3013 RMK A01 T02710179  RH  057%=      5-min Rain = 0
KTA1 150416Z 15003KT 27/18 A3013 RMK A01 T02700179  RH  057%=      5-min Rain = 0
KTA1 150417Z 16002KT 27/18 A3013 RMK A01 T02700179  RH  058%=      5-min Rain = 0
KTA1 150418Z 16002KT 27/18 A3013 RMK A01 T02690179  RH  058%=      5-min Rain = 0
KTA1 150419Z 16003KT 27/18 A3013 RMK A01 T02690179  RH  058%=      5-min Rain = 0
KTA1 150420Z 16003KT 27/18 A3013 RMK A01 T02690180  RH  058%=      5-min Rain = 0
KTA1 150421Z 16004KT 27/18 A3013 RMK A01 T02690179  RH  058%=      5-min Rain = 0
KTA1 150422Z 15004KT 27/18 A3013 RMK A01 T02680179  RH  058%=      5-min Rain = 0
KTA1 150423Z 15003KT 27/18 A3013 RMK A01 T02680179  RH  058%=      5-min Rain = 0
KTA1 150424Z 16003KT 27/18 A3013 RMK A01 T02670179  RH  058%=      5-min Rain = 0
KTA1 150425Z 17003KT 27/18 A3013 RMK A01 T02670179  RH  059%=      5-min Rain = 0
KTA1 150426Z 17003KT 27/18 A3013 RMK A01 T02660180  RH  059%=      5-min Rain = 0
KTA1 150427Z 18003KT 27/18 A3013 RMK A01 T02660181  RH  060%=      5-min Rain = 0
KTA1 150428Z 19003KT 27/18 A3013 RMK A01 T02660181  RH  060%=      5-min Rain = 0
KTA1 150429Z 18002KT 27/18 A3013 RMK A01 T02660182  RH  060%=      5-min Rain = 0
KTA1 150430Z 19002KT 27/18 A3013 RMK A01 T02660181  RH  060%=      5-min Rain = 0
KTA1 150431Z 19002KT 27/18 A3013 RMK A01 T02660181  RH  060%=      5-min Rain = 0
KTA1 150432Z 19002KT 27/18 A3013 RMK A01 T02660181  RH  059%=      5-min Rain = 0
KTA1 150433Z 19002KT 27/18 A3013 RMK A01 T02670181  RH  059%=      5-min Rain = 0
KTA1 150434Z 20002KT 27/18 A3013 RMK A01 T02670181  RH  059%=      5-min Rain = 0
KTA1 150435Z 21001KT 27/18 A3013 RMK A01 T02670182  RH  060%=      5-min Rain = 0
KTA1 150436Z 22001KT 27/18 A3013 RMK A01 T02670182  RH  060%=      5-min Rain = 0
KTA1 150437Z 22001KT 27/18 A3013 RMK A01 T02680183  RH  060%=      5-min Rain = 0
KTA1 150438Z 22001KT 27/18 A3013 RMK A01 T02680183  RH  060%=      5-min Rain = 0
KTA1 150439Z 23000KT 27/18 A3013 RMK A01 T02680183  RH  059%=      5-min Rain = 0
KTA1 150440Z 00000KT 27/18 A3013 RMK A01 T02680181  RH  059%=      5-min Rain = 0
KTA1 150441Z 00000KT 27/18 A3013 RMK A01 T02680181  RH  059%=      5-min Rain = 0
KTA1 150442Z 23001KT 27/18 A3013 RMK A01 T02680180  RH  058%=      5-min Rain = 0
KTA1 150443Z 23001KT 27/18 A3013 RMK A01 T02680178  RH  058%=      5-min Rain = 0
KTA1 150444Z 23001KT 27/18 A3013 RMK A01 T02670178  RH  058%=      5-min Rain = 0
KTA1 150445Z 23001KT 27/18 A3013 RMK A01 T02660179  RH  059%=      5-min Rain = 0
KTA1 150446Z 23001KT 27/18 A3014 RMK A01 T02660179  RH  059%=      5-min Rain = 0
KTA1 150447Z 23002KT 27/18 A3014 RMK A01 T02650179  RH  059%=      5-min Rain = 0
KTA1 150448Z 23002KT 27/18 A3014 RMK A01 T02650180  RH  059%=      5-min Rain = 0
KTA1 150449Z 23002KT 27/18 A3014 RMK A01 T02650178  RH  059%=      5-min Rain = 0
KTA1 150450Z 23001KT 27/18 A3014 RMK A01 T02650177  RH  058%=      5-min Rain = 0
KTA1 150451Z 23001KT 27/18 A3014 RMK A01 T02650179  RH  059%=      5-min Rain = 0
KTA1 150452Z 23001KT 27/18 A3014 RMK A01 T02650180  RH  059%=      5-min Rain = 0
KTA1 150453Z 24001KT 27/18 A3014 RMK A01 T02650181  RH  060%=      5-min Rain = 0
KTA1 150454Z 24001KT 27/18 A3014 RMK A01 T02650179  RH  059%=      5-min Rain = 0
KTA1 150455Z 24001KT 27/18 A3014 RMK A01 T02650178  RH  059%=      5-min Rain = 0
KTA1 150456Z 24001KT 27/18 A3014 RMK A01 T02650179  RH  059%=      5-min Rain = 0
KTA1 150457Z 23001KT 27/18 A3014 RMK A01 T02650179  RH  059%=      5-min Rain = 0
KTA1 150458Z 23002KT 27/18 A3014 RMK A01 T02650177  RH  058%=      5-min Rain = 0
KTA1 150459Z 23002KT 27/17 A3014 RMK A01 T02650173  RH  057%=      5-min Rain = 0

Page generated in 0.1178 seconds.